<?xml version="1.0" encoding="utf-8"?>
<gpx xmlns:xsi="http://www.w3.org/2001/XMLSchema-instance" xmlns:xsd="http://www.w3.org/2001/XMLSchema" version="1.1" creator="Shapelink.com" xmlns="http://www.topografix.com/GPX/1/1" xmlns:gpxtpx="http://www.garmin.com/xmlschemas/TrackPointExtension/v1">
  <metadata>
    <name>Sykling 32.92 km, 2012-04-09</name>
    <desc></desc>
    <author><name>Mikael Blom</name></author> 
    <time>2012-04-09T08:26:07Z</time>
  </metadata>
  <trk>
    <name>Sykling 32.92 km, 2012-04-09</name>
    <trkseg>
      <trkpt lat="59.9788673" lon="17.7393207">
        <ele>39.5513</ele>
        <time>2012-04-09T08:26:07Z</time>
      </trkpt>
      <trkpt lat="59.9787256" lon="17.7392901">
        <ele>39.0707</ele>
        <time>2012-04-09T08:26:11Z</time>
      </trkpt>
      <trkpt lat="59.9784034" lon="17.7392485">
        <ele>39.5513</ele>
        <time>2012-04-09T08:26:18Z</time>
      </trkpt>
      <trkpt lat="59.9781579" lon="17.7391868">
        <ele>39.0707</ele>
        <time>2012-04-09T08:26:23Z</time>
      </trkpt>
      <trkpt lat="59.9778388" lon="17.7390276">
        <ele>35.7061</ele>
        <time>2012-04-09T08:26:30Z</time>
      </trkpt>
      <trkpt lat="59.9774834" lon="17.7390207">
        <ele>33.3029</ele>
        <time>2012-04-09T08:26:36Z</time>
      </trkpt>
      <trkpt lat="59.9770149" lon="17.7392409">
        <ele>31.3801</ele>
        <time>2012-04-09T08:26:43Z</time>
      </trkpt>
      <trkpt lat="59.9765912" lon="17.7394222">
        <ele>30.4188</ele>
        <time>2012-04-09T08:26:49Z</time>
      </trkpt>
      <trkpt lat="59.9764046" lon="17.7396485">
        <ele>29.9381</ele>
        <time>2012-04-09T08:26:52Z</time>
      </trkpt>
      <trkpt lat="59.9762165" lon="17.7397055">
        <ele>28.4962</ele>
        <time>2012-04-09T08:26:55Z</time>
      </trkpt>
      <trkpt lat="59.9760948" lon="17.7395428">
        <ele>27.0543</ele>
        <time>2012-04-09T08:26:57Z</time>
      </trkpt>
      <trkpt lat="59.9754588" lon="17.7383546">
        <ele>23.6896</ele>
        <time>2012-04-09T08:27:08Z</time>
      </trkpt>
      <trkpt lat="59.975157" lon="17.7378205">
        <ele>23.6896</ele>
        <time>2012-04-09T08:27:14Z</time>
      </trkpt>
      <trkpt lat="59.9748016" lon="17.7371199">
        <ele>23.209</ele>
        <time>2012-04-09T08:27:22Z</time>
      </trkpt>
      <trkpt lat="59.9745701" lon="17.7364237">
        <ele>23.209</ele>
        <time>2012-04-09T08:27:29Z</time>
      </trkpt>
      <trkpt lat="59.9744164" lon="17.7356707">
        <ele>23.209</ele>
        <time>2012-04-09T08:27:36Z</time>
      </trkpt>
      <trkpt lat="59.974323" lon="17.7347426">
        <ele>22.7283</ele>
        <time>2012-04-09T08:27:44Z</time>
      </trkpt>
      <trkpt lat="59.9743134" lon="17.7345068">
        <ele>22.7283</ele>
        <time>2012-04-09T08:27:46Z</time>
      </trkpt>
      <trkpt lat="59.9743538" lon="17.7334809">
        <ele>22.7283</ele>
        <time>2012-04-09T08:27:55Z</time>
      </trkpt>
      <trkpt lat="59.9743729" lon="17.7323545">
        <ele>22.7283</ele>
        <time>2012-04-09T08:28:05Z</time>
      </trkpt>
      <trkpt lat="59.9743631" lon="17.731309">
        <ele>23.209</ele>
        <time>2012-04-09T08:28:14Z</time>
      </trkpt>
      <trkpt lat="59.9744294" lon="17.7303072">
        <ele>23.209</ele>
        <time>2012-04-09T08:28:23Z</time>
      </trkpt>
      <trkpt lat="59.9744904" lon="17.7292503">
        <ele>23.6896</ele>
        <time>2012-04-09T08:28:33Z</time>
      </trkpt>
      <trkpt lat="59.9744604" lon="17.7280125">
        <ele>23.6896</ele>
        <time>2012-04-09T08:28:44Z</time>
      </trkpt>
      <trkpt lat="59.9744424" lon="17.7270413">
        <ele>25.1317</ele>
        <time>2012-04-09T08:28:53Z</time>
      </trkpt>
      <trkpt lat="59.9744149" lon="17.7262239">
        <ele>25.1317</ele>
        <time>2012-04-09T08:29:01Z</time>
      </trkpt>
      <trkpt lat="59.9743526" lon="17.7252262">
        <ele>25.1317</ele>
        <time>2012-04-09T08:29:10Z</time>
      </trkpt>
      <trkpt lat="59.9741757" lon="17.7239736">
        <ele>25.1317</ele>
        <time>2012-04-09T08:29:22Z</time>
      </trkpt>
      <trkpt lat="59.9740361" lon="17.7230976">
        <ele>25.1317</ele>
        <time>2012-04-09T08:29:31Z</time>
      </trkpt>
      <trkpt lat="59.9738294" lon="17.7223002">
        <ele>25.6123</ele>
        <time>2012-04-09T08:29:40Z</time>
      </trkpt>
      <trkpt lat="59.9735606" lon="17.7215814">
        <ele>25.6123</ele>
        <time>2012-04-09T08:29:49Z</time>
      </trkpt>
      <trkpt lat="59.9732431" lon="17.720972">
        <ele>26.0929</ele>
        <time>2012-04-09T08:29:58Z</time>
      </trkpt>
      <trkpt lat="59.9728355" lon="17.7204227">
        <ele>26.5736</ele>
        <time>2012-04-09T08:30:08Z</time>
      </trkpt>
      <trkpt lat="59.9723403" lon="17.719958">
        <ele>27.0543</ele>
        <time>2012-04-09T08:30:19Z</time>
      </trkpt>
      <trkpt lat="59.9718847" lon="17.7195441">
        <ele>27.5349</ele>
        <time>2012-04-09T08:30:29Z</time>
      </trkpt>
      <trkpt lat="59.9713596" lon="17.7190679">
        <ele>28.0155</ele>
        <time>2012-04-09T08:30:41Z</time>
      </trkpt>
      <trkpt lat="59.9709191" lon="17.7186665">
        <ele>28.4962</ele>
        <time>2012-04-09T08:30:52Z</time>
      </trkpt>
      <trkpt lat="59.9706009" lon="17.7183784">
        <ele>28.9769</ele>
        <time>2012-04-09T08:31:00Z</time>
      </trkpt>
      <trkpt lat="59.970094" lon="17.7179268">
        <ele>29.4575</ele>
        <time>2012-04-09T08:31:12Z</time>
      </trkpt>
      <trkpt lat="59.9696692" lon="17.717572">
        <ele>30.4188</ele>
        <time>2012-04-09T08:31:22Z</time>
      </trkpt>
      <trkpt lat="59.9693294" lon="17.7173722">
        <ele>31.3801</ele>
        <time>2012-04-09T08:31:30Z</time>
      </trkpt>
      <trkpt lat="59.9689302" lon="17.7172155">
        <ele>32.3416</ele>
        <time>2012-04-09T08:31:39Z</time>
      </trkpt>
      <trkpt lat="59.9684791" lon="17.7170194">
        <ele>31.8607</ele>
        <time>2012-04-09T08:31:48Z</time>
      </trkpt>
      <trkpt lat="59.9680833" lon="17.7166197">
        <ele>29.4575</ele>
        <time>2012-04-09T08:31:55Z</time>
      </trkpt>
      <trkpt lat="59.967804" lon="17.7160936">
        <ele>27.5349</ele>
        <time>2012-04-09T08:32:00Z</time>
      </trkpt>
      <trkpt lat="59.9675938" lon="17.7153746">
        <ele>25.6123</ele>
        <time>2012-04-09T08:32:05Z</time>
      </trkpt>
      <trkpt lat="59.9674973" lon="17.714652">
        <ele>25.1317</ele>
        <time>2012-04-09T08:32:10Z</time>
      </trkpt>
      <trkpt lat="59.9674223" lon="17.7140816">
        <ele>26.0929</ele>
        <time>2012-04-09T08:32:15Z</time>
      </trkpt>
      <trkpt lat="59.9673472" lon="17.7135331">
        <ele>28.0155</ele>
        <time>2012-04-09T08:32:22Z</time>
      </trkpt>
      <trkpt lat="59.9672294" lon="17.7129498">
        <ele>28.9769</ele>
        <time>2012-04-09T08:32:31Z</time>
      </trkpt>
      <trkpt lat="59.9670591" lon="17.7123753">
        <ele>29.9381</ele>
        <time>2012-04-09T08:32:40Z</time>
      </trkpt>
      <trkpt lat="59.9668229" lon="17.7117542">
        <ele>29.4575</ele>
        <time>2012-04-09T08:32:49Z</time>
      </trkpt>
      <trkpt lat="59.9667399" lon="17.7115232">
        <ele>29.9381</ele>
        <time>2012-04-09T08:32:52Z</time>
      </trkpt>
      <trkpt lat="59.9665085" lon="17.710742">
        <ele>29.9381</ele>
        <time>2012-04-09T08:33:01Z</time>
      </trkpt>
      <trkpt lat="59.9663179" lon="17.7100665">
        <ele>29.9381</ele>
        <time>2012-04-09T08:33:08Z</time>
      </trkpt>
      <trkpt lat="59.9660282" lon="17.7090626">
        <ele>29.9381</ele>
        <time>2012-04-09T08:33:18Z</time>
      </trkpt>
      <trkpt lat="59.9658106" lon="17.7084519">
        <ele>30.4188</ele>
        <time>2012-04-09T08:33:25Z</time>
      </trkpt>
      <trkpt lat="59.9655634" lon="17.7080583">
        <ele>31.3801</ele>
        <time>2012-04-09T08:33:31Z</time>
      </trkpt>
      <trkpt lat="59.9652174" lon="17.7077531">
        <ele>31.8607</ele>
        <time>2012-04-09T08:33:38Z</time>
      </trkpt>
      <trkpt lat="59.9647789" lon="17.7074251">
        <ele>31.8607</ele>
        <time>2012-04-09T08:33:47Z</time>
      </trkpt>
      <trkpt lat="59.9644135" lon="17.7072346">
        <ele>31.8607</ele>
        <time>2012-04-09T08:33:55Z</time>
      </trkpt>
      <trkpt lat="59.9639704" lon="17.7071217">
        <ele>32.3416</ele>
        <time>2012-04-09T08:34:04Z</time>
      </trkpt>
      <trkpt lat="59.9633933" lon="17.7070684">
        <ele>33.3029</ele>
        <time>2012-04-09T08:34:15Z</time>
      </trkpt>
      <trkpt lat="59.9629311" lon="17.7070952">
        <ele>34.7449</ele>
        <time>2012-04-09T08:34:24Z</time>
      </trkpt>
      <trkpt lat="59.9625157" lon="17.7070202">
        <ele>35.7061</ele>
        <time>2012-04-09T08:34:33Z</time>
      </trkpt>
      <trkpt lat="59.9620883" lon="17.7068071">
        <ele>35.7061</ele>
        <time>2012-04-09T08:34:42Z</time>
      </trkpt>
      <trkpt lat="59.9616835" lon="17.7064713">
        <ele>35.7061</ele>
        <time>2012-04-09T08:34:51Z</time>
      </trkpt>
      <trkpt lat="59.9614429" lon="17.70611">
        <ele>35.7061</ele>
        <time>2012-04-09T08:34:57Z</time>
      </trkpt>
      <trkpt lat="59.9610725" lon="17.7054205">
        <ele>35.2255</ele>
        <time>2012-04-09T08:35:07Z</time>
      </trkpt>
      <trkpt lat="59.960747" lon="17.7049542">
        <ele>34.7449</ele>
        <time>2012-04-09T08:35:15Z</time>
      </trkpt>
      <trkpt lat="59.9603654" lon="17.7045162">
        <ele>35.2255</ele>
        <time>2012-04-09T08:35:24Z</time>
      </trkpt>
      <trkpt lat="59.9602435" lon="17.7043652">
        <ele>35.2255</ele>
        <time>2012-04-09T08:35:27Z</time>
      </trkpt>
      <trkpt lat="59.9600775" lon="17.7040726">
        <ele>34.7449</ele>
        <time>2012-04-09T08:35:32Z</time>
      </trkpt>
      <trkpt lat="59.9598983" lon="17.7035375">
        <ele>34.7449</ele>
        <time>2012-04-09T08:35:39Z</time>
      </trkpt>
      <trkpt lat="59.9597525" lon="17.703058">
        <ele>34.2642</ele>
        <time>2012-04-09T08:35:46Z</time>
      </trkpt>
      <trkpt lat="59.9595842" lon="17.7024493">
        <ele>33.3029</ele>
        <time>2012-04-09T08:35:54Z</time>
      </trkpt>
      <trkpt lat="59.9594323" lon="17.7018908">
        <ele>33.3029</ele>
        <time>2012-04-09T08:36:00Z</time>
      </trkpt>
      <trkpt lat="59.9592761" lon="17.7010888">
        <ele>33.3029</ele>
        <time>2012-04-09T08:36:08Z</time>
      </trkpt>
      <trkpt lat="59.9591599" lon="17.7000218">
        <ele>33.7834</ele>
        <time>2012-04-09T08:36:17Z</time>
      </trkpt>
      <trkpt lat="59.9590953" lon="17.6989536">
        <ele>34.2642</ele>
        <time>2012-04-09T08:36:26Z</time>
      </trkpt>
      <trkpt lat="59.9590635" lon="17.6980421">
        <ele>33.3029</ele>
        <time>2012-04-09T08:36:34Z</time>
      </trkpt>
      <trkpt lat="59.9589637" lon="17.6972836">
        <ele>32.3416</ele>
        <time>2012-04-09T08:36:40Z</time>
      </trkpt>
      <trkpt lat="59.9587741" lon="17.6964679">
        <ele>31.8607</ele>
        <time>2012-04-09T08:36:47Z</time>
      </trkpt>
      <trkpt lat="59.9584696" lon="17.6956698">
        <ele>31.8607</ele>
        <time>2012-04-09T08:36:55Z</time>
      </trkpt>
      <trkpt lat="59.9581042" lon="17.6946889">
        <ele>32.3416</ele>
        <time>2012-04-09T08:37:05Z</time>
      </trkpt>
      <trkpt lat="59.9578075" lon="17.693829">
        <ele>32.8223</ele>
        <time>2012-04-09T08:37:14Z</time>
      </trkpt>
      <trkpt lat="59.9574854" lon="17.6929002">
        <ele>32.8223</ele>
        <time>2012-04-09T08:37:24Z</time>
      </trkpt>
      <trkpt lat="59.9571824" lon="17.6920356">
        <ele>32.3416</ele>
        <time>2012-04-09T08:37:34Z</time>
      </trkpt>
      <trkpt lat="59.9570147" lon="17.6917029">
        <ele>33.3029</ele>
        <time>2012-04-09T08:37:39Z</time>
      </trkpt>
      <trkpt lat="59.956866" lon="17.6914799">
        <ele>33.3029</ele>
        <time>2012-04-09T08:37:43Z</time>
      </trkpt>
      <trkpt lat="59.9568372" lon="17.6914082">
        <ele>33.3029</ele>
        <time>2012-04-09T08:37:44Z</time>
      </trkpt>
      <trkpt lat="59.9566653" lon="17.6909167">
        <ele>33.7834</ele>
        <time>2012-04-09T08:37:51Z</time>
      </trkpt>
      <trkpt lat="59.9564405" lon="17.6903167">
        <ele>34.7449</ele>
        <time>2012-04-09T08:38:00Z</time>
      </trkpt>
      <trkpt lat="59.956284" lon="17.6897077">
        <ele>34.7449</ele>
        <time>2012-04-09T08:38:08Z</time>
      </trkpt>
      <trkpt lat="59.956127" lon="17.6888815">
        <ele>34.2642</ele>
        <time>2012-04-09T08:38:17Z</time>
      </trkpt>
      <trkpt lat="59.9560261" lon="17.6882514">
        <ele>34.2642</ele>
        <time>2012-04-09T08:38:23Z</time>
      </trkpt>
      <trkpt lat="59.955857" lon="17.6871367">
        <ele>33.7834</ele>
        <time>2012-04-09T08:38:33Z</time>
      </trkpt>
      <trkpt lat="59.9556835" lon="17.6859326">
        <ele>32.3416</ele>
        <time>2012-04-09T08:38:44Z</time>
      </trkpt>
      <trkpt lat="59.9554946" lon="17.6846253">
        <ele>30.8995</ele>
        <time>2012-04-09T08:38:56Z</time>
      </trkpt>
      <trkpt lat="59.9553141" lon="17.6836812">
        <ele>29.9381</ele>
        <time>2012-04-09T08:39:05Z</time>
      </trkpt>
      <trkpt lat="59.9550636" lon="17.6826786">
        <ele>29.9381</ele>
        <time>2012-04-09T08:39:15Z</time>
      </trkpt>
      <trkpt lat="59.9548878" lon="17.6821246">
        <ele>28.9769</ele>
        <time>2012-04-09T08:39:21Z</time>
      </trkpt>
      <trkpt lat="59.9547558" lon="17.6819028">
        <ele>28.9769</ele>
        <time>2012-04-09T08:39:24Z</time>
      </trkpt>
      <trkpt lat="59.9545824" lon="17.6814812">
        <ele>28.9769</ele>
        <time>2012-04-09T08:39:29Z</time>
      </trkpt>
      <trkpt lat="59.9543056" lon="17.6806142">
        <ele>28.9769</ele>
        <time>2012-04-09T08:39:38Z</time>
      </trkpt>
      <trkpt lat="59.953996" lon="17.6797216">
        <ele>29.4575</ele>
        <time>2012-04-09T08:39:48Z</time>
      </trkpt>
      <trkpt lat="59.9537567" lon="17.6789927">
        <ele>29.4575</ele>
        <time>2012-04-09T08:39:56Z</time>
      </trkpt>
      <trkpt lat="59.9535221" lon="17.678298">
        <ele>28.9769</ele>
        <time>2012-04-09T08:40:04Z</time>
      </trkpt>
      <trkpt lat="59.9532967" lon="17.6776411">
        <ele>28.0155</ele>
        <time>2012-04-09T08:40:12Z</time>
      </trkpt>
      <trkpt lat="59.953008" lon="17.6768682">
        <ele>27.5349</ele>
        <time>2012-04-09T08:40:22Z</time>
      </trkpt>
      <trkpt lat="59.9527724" lon="17.6762674">
        <ele>28.9769</ele>
        <time>2012-04-09T08:40:30Z</time>
      </trkpt>
      <trkpt lat="59.9525574" lon="17.6756909">
        <ele>29.9381</ele>
        <time>2012-04-09T08:40:38Z</time>
      </trkpt>
      <trkpt lat="59.9524037" lon="17.6752692">
        <ele>31.3801</ele>
        <time>2012-04-09T08:40:45Z</time>
      </trkpt>
      <trkpt lat="59.9522984" lon="17.6748026">
        <ele>30.8995</ele>
        <time>2012-04-09T08:40:51Z</time>
      </trkpt>
      <trkpt lat="59.9521806" lon="17.6741616">
        <ele>30.4188</ele>
        <time>2012-04-09T08:40:57Z</time>
      </trkpt>
      <trkpt lat="59.9519725" lon="17.6729827">
        <ele>28.9769</ele>
        <time>2012-04-09T08:41:08Z</time>
      </trkpt>
      <trkpt lat="59.9518633" lon="17.6720198">
        <ele>28.4962</ele>
        <time>2012-04-09T08:41:16Z</time>
      </trkpt>
      <trkpt lat="59.9518483" lon="17.6715415">
        <ele>28.0155</ele>
        <time>2012-04-09T08:41:20Z</time>
      </trkpt>
      <trkpt lat="59.9517762" lon="17.6710362">
        <ele>26.5736</ele>
        <time>2012-04-09T08:41:24Z</time>
      </trkpt>
      <trkpt lat="59.9517689" lon="17.670602">
        <ele>25.6123</ele>
        <time>2012-04-09T08:41:27Z</time>
      </trkpt>
      <trkpt lat="59.9518435" lon="17.6693634">
        <ele>25.1317</ele>
        <time>2012-04-09T08:41:36Z</time>
      </trkpt>
      <trkpt lat="59.9518567" lon="17.6689915">
        <ele>25.1317</ele>
        <time>2012-04-09T08:41:39Z</time>
      </trkpt>
      <trkpt lat="59.9518022" lon="17.6685071">
        <ele>24.651</ele>
        <time>2012-04-09T08:41:43Z</time>
      </trkpt>
      <trkpt lat="59.9517447" lon="17.6682831">
        <ele>24.651</ele>
        <time>2012-04-09T08:41:45Z</time>
      </trkpt>
      <trkpt lat="59.9515663" lon="17.6680352">
        <ele>25.1317</ele>
        <time>2012-04-09T08:41:49Z</time>
      </trkpt>
      <trkpt lat="59.9515131" lon="17.6680361">
        <ele>25.1317</ele>
        <time>2012-04-09T08:41:50Z</time>
      </trkpt>
      <trkpt lat="59.9510815" lon="17.6681681">
        <ele>26.5736</ele>
        <time>2012-04-09T08:41:59Z</time>
      </trkpt>
      <trkpt lat="59.9506652" lon="17.6682693">
        <ele>28.0155</ele>
        <time>2012-04-09T08:42:08Z</time>
      </trkpt>
      <trkpt lat="59.9502535" lon="17.6682569">
        <ele>28.9769</ele>
        <time>2012-04-09T08:42:17Z</time>
      </trkpt>
      <trkpt lat="59.9498466" lon="17.6681305">
        <ele>28.9769</ele>
        <time>2012-04-09T08:42:26Z</time>
      </trkpt>
      <trkpt lat="59.9493831" lon="17.6678913">
        <ele>28.9769</ele>
        <time>2012-04-09T08:42:36Z</time>
      </trkpt>
      <trkpt lat="59.9489341" lon="17.6676363">
        <ele>29.4575</ele>
        <time>2012-04-09T08:42:46Z</time>
      </trkpt>
      <trkpt lat="59.9484591" lon="17.6673664">
        <ele>29.4575</ele>
        <time>2012-04-09T08:42:57Z</time>
      </trkpt>
      <trkpt lat="59.9480508" lon="17.6671363">
        <ele>29.4575</ele>
        <time>2012-04-09T08:43:07Z</time>
      </trkpt>
      <trkpt lat="59.9475694" lon="17.6668826">
        <ele>29.4575</ele>
        <time>2012-04-09T08:43:19Z</time>
      </trkpt>
      <trkpt lat="59.9470886" lon="17.6666543">
        <ele>29.9381</ele>
        <time>2012-04-09T08:43:31Z</time>
      </trkpt>
      <trkpt lat="59.9468095" lon="17.6665346">
        <ele>29.9381</ele>
        <time>2012-04-09T08:43:38Z</time>
      </trkpt>
      <trkpt lat="59.9466017" lon="17.6665174">
        <ele>30.4188</ele>
        <time>2012-04-09T08:43:43Z</time>
      </trkpt>
      <trkpt lat="59.9463942" lon="17.6664476">
        <ele>29.9381</ele>
        <time>2012-04-09T08:43:48Z</time>
      </trkpt>
      <trkpt lat="59.9460776" lon="17.6662485">
        <ele>29.9381</ele>
        <time>2012-04-09T08:43:56Z</time>
      </trkpt>
      <trkpt lat="59.9456928" lon="17.6661054">
        <ele>29.9381</ele>
        <time>2012-04-09T08:44:05Z</time>
      </trkpt>
      <trkpt lat="59.9451727" lon="17.665904">
        <ele>29.9381</ele>
        <time>2012-04-09T08:44:17Z</time>
      </trkpt>
      <trkpt lat="59.9446721" lon="17.6657149">
        <ele>30.4188</ele>
        <time>2012-04-09T08:44:28Z</time>
      </trkpt>
      <trkpt lat="59.9442162" lon="17.6655312">
        <ele>30.8995</ele>
        <time>2012-04-09T08:44:38Z</time>
      </trkpt>
      <trkpt lat="59.9437886" lon="17.6653032">
        <ele>31.8607</ele>
        <time>2012-04-09T08:44:48Z</time>
      </trkpt>
      <trkpt lat="59.9434379" lon="17.6650647">
        <ele>32.3416</ele>
        <time>2012-04-09T08:44:57Z</time>
      </trkpt>
      <trkpt lat="59.9430747" lon="17.66475">
        <ele>33.3029</ele>
        <time>2012-04-09T08:45:07Z</time>
      </trkpt>
      <trkpt lat="59.94271" lon="17.6643759">
        <ele>33.7834</ele>
        <time>2012-04-09T08:45:17Z</time>
      </trkpt>
      <trkpt lat="59.9424144" lon="17.6640159">
        <ele>34.7449</ele>
        <time>2012-04-09T08:45:26Z</time>
      </trkpt>
      <trkpt lat="59.9420703" lon="17.663524">
        <ele>34.7449</ele>
        <time>2012-04-09T08:45:36Z</time>
      </trkpt>
      <trkpt lat="59.9417139" lon="17.6629194">
        <ele>35.2255</ele>
        <time>2012-04-09T08:45:47Z</time>
      </trkpt>
      <trkpt lat="59.9413761" lon="17.6624116">
        <ele>34.7449</ele>
        <time>2012-04-09T08:45:56Z</time>
      </trkpt>
      <trkpt lat="59.9410597" lon="17.6621682">
        <ele>34.7449</ele>
        <time>2012-04-09T08:46:03Z</time>
      </trkpt>
      <trkpt lat="59.94077" lon="17.6620895">
        <ele>34.7449</ele>
        <time>2012-04-09T08:46:09Z</time>
      </trkpt>
      <trkpt lat="59.9405322" lon="17.6618999">
        <ele>34.2642</ele>
        <time>2012-04-09T08:46:14Z</time>
      </trkpt>
      <trkpt lat="59.9404448" lon="17.6616125">
        <ele>33.7834</ele>
        <time>2012-04-09T08:46:17Z</time>
      </trkpt>
      <trkpt lat="59.9404267" lon="17.6611502">
        <ele>33.3029</ele>
        <time>2012-04-09T08:46:21Z</time>
      </trkpt>
      <trkpt lat="59.9404982" lon="17.6607188">
        <ele>33.3029</ele>
        <time>2012-04-09T08:46:25Z</time>
      </trkpt>
      <trkpt lat="59.9405402" lon="17.6601848">
        <ele>33.7834</ele>
        <time>2012-04-09T08:46:31Z</time>
      </trkpt>
      <trkpt lat="59.9405237" lon="17.6601082">
        <ele>33.7834</ele>
        <time>2012-04-09T08:46:32Z</time>
      </trkpt>
      <trkpt lat="59.9403944" lon="17.659574">
        <ele>33.7834</ele>
        <time>2012-04-09T08:46:39Z</time>
      </trkpt>
      <trkpt lat="59.9402925" lon="17.6589675">
        <ele>33.3029</ele>
        <time>2012-04-09T08:46:45Z</time>
      </trkpt>
      <trkpt lat="59.9401464" lon="17.6582941">
        <ele>32.8223</ele>
        <time>2012-04-09T08:46:52Z</time>
      </trkpt>
      <trkpt lat="59.939992" lon="17.6575667">
        <ele>33.3029</ele>
        <time>2012-04-09T08:47:01Z</time>
      </trkpt>
      <trkpt lat="59.9398424" lon="17.6568021">
        <ele>34.2642</ele>
        <time>2012-04-09T08:47:11Z</time>
      </trkpt>
      <trkpt lat="59.9396818" lon="17.6560151">
        <ele>34.2642</ele>
        <time>2012-04-09T08:47:21Z</time>
      </trkpt>
      <trkpt lat="59.9395387" lon="17.6552962">
        <ele>34.2642</ele>
        <time>2012-04-09T08:47:30Z</time>
      </trkpt>
      <trkpt lat="59.9393302" lon="17.6542666">
        <ele>33.7834</ele>
        <time>2012-04-09T08:47:42Z</time>
      </trkpt>
      <trkpt lat="59.9391368" lon="17.6533336">
        <ele>32.8223</ele>
        <time>2012-04-09T08:47:52Z</time>
      </trkpt>
      <trkpt lat="59.9389072" lon="17.652394">
        <ele>34.2642</ele>
        <time>2012-04-09T08:48:02Z</time>
      </trkpt>
      <trkpt lat="59.9386567" lon="17.6515086">
        <ele>33.7834</ele>
        <time>2012-04-09T08:48:12Z</time>
      </trkpt>
      <trkpt lat="59.938513" lon="17.6510745">
        <ele>32.8223</ele>
        <time>2012-04-09T08:48:17Z</time>
      </trkpt>
      <trkpt lat="59.9382612" lon="17.650513">
        <ele>31.8607</ele>
        <time>2012-04-09T08:48:24Z</time>
      </trkpt>
      <trkpt lat="59.938019" lon="17.6498487">
        <ele>31.8607</ele>
        <time>2012-04-09T08:48:32Z</time>
      </trkpt>
      <trkpt lat="59.9378742" lon="17.6494909">
        <ele>30.8995</ele>
        <time>2012-04-09T08:48:37Z</time>
      </trkpt>
      <trkpt lat="59.9377418" lon="17.6491119">
        <ele>31.3801</ele>
        <time>2012-04-09T08:48:42Z</time>
      </trkpt>
      <trkpt lat="59.9376793" lon="17.648871">
        <ele>31.3801</ele>
        <time>2012-04-09T08:48:45Z</time>
      </trkpt>
      <trkpt lat="59.9374885" lon="17.648497">
        <ele>32.3416</ele>
        <time>2012-04-09T08:48:51Z</time>
      </trkpt>
      <trkpt lat="59.9372725" lon="17.6481083">
        <ele>32.3416</ele>
        <time>2012-04-09T08:48:57Z</time>
      </trkpt>
      <trkpt lat="59.936941" lon="17.6477047">
        <ele>33.3029</ele>
        <time>2012-04-09T08:49:05Z</time>
      </trkpt>
      <trkpt lat="59.9365277" lon="17.6471636">
        <ele>33.7834</ele>
        <time>2012-04-09T08:49:15Z</time>
      </trkpt>
      <trkpt lat="59.9361965" lon="17.6467332">
        <ele>34.7449</ele>
        <time>2012-04-09T08:49:23Z</time>
      </trkpt>
      <trkpt lat="59.9359163" lon="17.6463771">
        <ele>35.2255</ele>
        <time>2012-04-09T08:49:30Z</time>
      </trkpt>
      <trkpt lat="59.9355512" lon="17.6459286">
        <ele>35.7061</ele>
        <time>2012-04-09T08:49:38Z</time>
      </trkpt>
      <trkpt lat="59.9352563" lon="17.6456275">
        <ele>35.7061</ele>
        <time>2012-04-09T08:49:44Z</time>
      </trkpt>
      <trkpt lat="59.9349419" lon="17.6452711">
        <ele>35.7061</ele>
        <time>2012-04-09T08:49:51Z</time>
      </trkpt>
      <trkpt lat="59.9345934" lon="17.6448361">
        <ele>35.2255</ele>
        <time>2012-04-09T08:49:59Z</time>
      </trkpt>
      <trkpt lat="59.9345476" lon="17.6447812">
        <ele>35.2255</ele>
        <time>2012-04-09T08:50:00Z</time>
      </trkpt>
      <trkpt lat="59.9342696" lon="17.6443425">
        <ele>32.8223</ele>
        <time>2012-04-09T08:50:06Z</time>
      </trkpt>
      <trkpt lat="59.9337585" lon="17.6437431">
        <ele>31.8607</ele>
        <time>2012-04-09T08:50:15Z</time>
      </trkpt>
      <trkpt lat="59.9333972" lon="17.643326">
        <ele>29.9381</ele>
        <time>2012-04-09T08:50:21Z</time>
      </trkpt>
      <trkpt lat="59.9330876" lon="17.6428383">
        <ele>27.0543</ele>
        <time>2012-04-09T08:50:26Z</time>
      </trkpt>
      <trkpt lat="59.9329545" lon="17.6426703">
        <ele>26.5736</ele>
        <time>2012-04-09T08:50:28Z</time>
      </trkpt>
      <trkpt lat="59.932785" lon="17.642389">
        <ele>26.0929</ele>
        <time>2012-04-09T08:50:31Z</time>
      </trkpt>
      <trkpt lat="59.9324986" lon="17.6420201">
        <ele>25.1317</ele>
        <time>2012-04-09T08:50:36Z</time>
      </trkpt>
      <trkpt lat="59.9321135" lon="17.6416665">
        <ele>25.6123</ele>
        <time>2012-04-09T08:50:43Z</time>
      </trkpt>
      <trkpt lat="59.9318303" lon="17.6414542">
        <ele>25.6123</ele>
        <time>2012-04-09T08:50:49Z</time>
      </trkpt>
      <trkpt lat="59.9313833" lon="17.6411345">
        <ele>25.6123</ele>
        <time>2012-04-09T08:50:58Z</time>
      </trkpt>
      <trkpt lat="59.9310497" lon="17.6408956">
        <ele>23.6896</ele>
        <time>2012-04-09T08:51:04Z</time>
      </trkpt>
      <trkpt lat="59.9307378" lon="17.6407879">
        <ele>23.6896</ele>
        <time>2012-04-09T08:51:09Z</time>
      </trkpt>
      <trkpt lat="59.930357" lon="17.6408335">
        <ele>23.209</ele>
        <time>2012-04-09T08:51:15Z</time>
      </trkpt>
      <trkpt lat="59.929796" lon="17.6408354">
        <ele>23.6896</ele>
        <time>2012-04-09T08:51:24Z</time>
      </trkpt>
      <trkpt lat="59.9293377" lon="17.6409226">
        <ele>23.6896</ele>
        <time>2012-04-09T08:51:32Z</time>
      </trkpt>
      <trkpt lat="59.9288309" lon="17.6409619">
        <ele>24.1703</ele>
        <time>2012-04-09T08:51:41Z</time>
      </trkpt>
      <trkpt lat="59.9284318" lon="17.6410479">
        <ele>24.651</ele>
        <time>2012-04-09T08:51:49Z</time>
      </trkpt>
      <trkpt lat="59.9279364" lon="17.6411049">
        <ele>24.651</ele>
        <time>2012-04-09T08:51:59Z</time>
      </trkpt>
      <trkpt lat="59.9275324" lon="17.6411453">
        <ele>24.651</ele>
        <time>2012-04-09T08:52:07Z</time>
      </trkpt>
      <trkpt lat="59.9269481" lon="17.6411935">
        <ele>25.1317</ele>
        <time>2012-04-09T08:52:19Z</time>
      </trkpt>
      <trkpt lat="59.9264618" lon="17.6412546">
        <ele>25.1317</ele>
        <time>2012-04-09T08:52:29Z</time>
      </trkpt>
      <trkpt lat="59.9260208" lon="17.6413099">
        <ele>25.6123</ele>
        <time>2012-04-09T08:52:38Z</time>
      </trkpt>
      <trkpt lat="59.9255706" lon="17.6413732">
        <ele>25.6123</ele>
        <time>2012-04-09T08:52:48Z</time>
      </trkpt>
      <trkpt lat="59.9250764" lon="17.6414026">
        <ele>26.0929</ele>
        <time>2012-04-09T08:52:59Z</time>
      </trkpt>
      <trkpt lat="59.9246652" lon="17.6414586">
        <ele>26.5736</ele>
        <time>2012-04-09T08:53:08Z</time>
      </trkpt>
      <trkpt lat="59.9241607" lon="17.6415254">
        <ele>26.5736</ele>
        <time>2012-04-09T08:53:19Z</time>
      </trkpt>
      <trkpt lat="59.9236482" lon="17.6415818">
        <ele>27.5349</ele>
        <time>2012-04-09T08:53:30Z</time>
      </trkpt>
      <trkpt lat="59.9233298" lon="17.6416245">
        <ele>28.0155</ele>
        <time>2012-04-09T08:53:37Z</time>
      </trkpt>
      <trkpt lat="59.9227838" lon="17.6416914">
        <ele>29.4575</ele>
        <time>2012-04-09T08:53:50Z</time>
      </trkpt>
      <trkpt lat="59.9223985" lon="17.6417499">
        <ele>29.9381</ele>
        <time>2012-04-09T08:53:59Z</time>
      </trkpt>
      <trkpt lat="59.9218042" lon="17.6418247">
        <ele>29.9381</ele>
        <time>2012-04-09T08:54:12Z</time>
      </trkpt>
      <trkpt lat="59.921667" lon="17.6418406">
        <ele>29.4575</ele>
        <time>2012-04-09T08:54:15Z</time>
      </trkpt>
      <trkpt lat="59.9212737" lon="17.6419011">
        <ele>29.4575</ele>
        <time>2012-04-09T08:54:23Z</time>
      </trkpt>
      <trkpt lat="59.9211028" lon="17.6419252">
        <ele>28.9769</ele>
        <time>2012-04-09T08:54:26Z</time>
      </trkpt>
      <trkpt lat="59.9206626" lon="17.6419057">
        <ele>27.0543</ele>
        <time>2012-04-09T08:54:34Z</time>
      </trkpt>
      <trkpt lat="59.9201736" lon="17.6419261">
        <ele>26.5736</ele>
        <time>2012-04-09T08:54:43Z</time>
      </trkpt>
      <trkpt lat="59.919708" lon="17.6420171">
        <ele>27.0543</ele>
        <time>2012-04-09T08:54:52Z</time>
      </trkpt>
      <trkpt lat="59.9192062" lon="17.6420762">
        <ele>27.5349</ele>
        <time>2012-04-09T08:55:02Z</time>
      </trkpt>
      <trkpt lat="59.918691" lon="17.642145">
        <ele>27.5349</ele>
        <time>2012-04-09T08:55:12Z</time>
      </trkpt>
      <trkpt lat="59.9180756" lon="17.6422159">
        <ele>25.6123</ele>
        <time>2012-04-09T08:55:22Z</time>
      </trkpt>
      <trkpt lat="59.9175559" lon="17.6422404">
        <ele>25.1317</ele>
        <time>2012-04-09T08:55:30Z</time>
      </trkpt>
      <trkpt lat="59.917214" lon="17.6422429">
        <ele>25.1317</ele>
        <time>2012-04-09T08:55:36Z</time>
      </trkpt>
      <trkpt lat="59.9168992" lon="17.6423305">
        <ele>25.6123</ele>
        <time>2012-04-09T08:55:42Z</time>
      </trkpt>
      <trkpt lat="59.9165209" lon="17.6423839">
        <ele>26.5736</ele>
        <time>2012-04-09T08:55:50Z</time>
      </trkpt>
      <trkpt lat="59.9160945" lon="17.6424264">
        <ele>26.5736</ele>
        <time>2012-04-09T08:55:59Z</time>
      </trkpt>
      <trkpt lat="59.915518" lon="17.6424666">
        <ele>26.0929</ele>
        <time>2012-04-09T08:56:10Z</time>
      </trkpt>
      <trkpt lat="59.9153571" lon="17.6425073">
        <ele>26.0929</ele>
        <time>2012-04-09T08:56:13Z</time>
      </trkpt>
      <trkpt lat="59.9151776" lon="17.6426465">
        <ele>27.5349</ele>
        <time>2012-04-09T08:56:17Z</time>
      </trkpt>
      <trkpt lat="59.9148572" lon="17.642732">
        <ele>28.0155</ele>
        <time>2012-04-09T08:56:25Z</time>
      </trkpt>
      <trkpt lat="59.9144651" lon="17.6427988">
        <ele>28.9769</ele>
        <time>2012-04-09T08:56:34Z</time>
      </trkpt>
      <trkpt lat="59.914078" lon="17.6428723">
        <ele>29.4575</ele>
        <time>2012-04-09T08:56:43Z</time>
      </trkpt>
      <trkpt lat="59.9140356" lon="17.6428851">
        <ele>29.9381</ele>
        <time>2012-04-09T08:56:44Z</time>
      </trkpt>
      <trkpt lat="59.9135513" lon="17.6429713">
        <ele>31.3801</ele>
        <time>2012-04-09T08:56:55Z</time>
      </trkpt>
      <trkpt lat="59.913129" lon="17.6430686">
        <ele>31.3801</ele>
        <time>2012-04-09T08:57:04Z</time>
      </trkpt>
      <trkpt lat="59.9127997" lon="17.6431438">
        <ele>29.9381</ele>
        <time>2012-04-09T08:57:11Z</time>
      </trkpt>
      <trkpt lat="59.9125774" lon="17.6430686">
        <ele>28.4962</ele>
        <time>2012-04-09T08:57:15Z</time>
      </trkpt>
      <trkpt lat="59.9121869" lon="17.6431135">
        <ele>28.4962</ele>
        <time>2012-04-09T08:57:22Z</time>
      </trkpt>
      <trkpt lat="59.9119005" lon="17.643205">
        <ele>28.9769</ele>
        <time>2012-04-09T08:57:28Z</time>
      </trkpt>
      <trkpt lat="59.9115281" lon="17.6432693">
        <ele>29.4575</ele>
        <time>2012-04-09T08:57:35Z</time>
      </trkpt>
      <trkpt lat="59.9110975" lon="17.643366">
        <ele>29.4575</ele>
        <time>2012-04-09T08:57:43Z</time>
      </trkpt>
      <trkpt lat="59.9105753" lon="17.6434722">
        <ele>28.9769</ele>
        <time>2012-04-09T08:57:52Z</time>
      </trkpt>
      <trkpt lat="59.9104075" lon="17.6435676">
        <ele>29.4575</ele>
        <time>2012-04-09T08:57:55Z</time>
      </trkpt>
      <trkpt lat="59.9100548" lon="17.6436098">
        <ele>29.4575</ele>
        <time>2012-04-09T08:58:01Z</time>
      </trkpt>
      <trkpt lat="59.9098568" lon="17.6435348">
        <ele>28.4962</ele>
        <time>2012-04-09T08:58:04Z</time>
      </trkpt>
      <trkpt lat="59.9094096" lon="17.6436031">
        <ele>28.0155</ele>
        <time>2012-04-09T08:58:11Z</time>
      </trkpt>
      <trkpt lat="59.9089071" lon="17.6436699">
        <ele>28.0155</ele>
        <time>2012-04-09T08:58:20Z</time>
      </trkpt>
      <trkpt lat="59.9083795" lon="17.6436925">
        <ele>28.0155</ele>
        <time>2012-04-09T08:58:30Z</time>
      </trkpt>
      <trkpt lat="59.9078537" lon="17.6436093">
        <ele>27.0543</ele>
        <time>2012-04-09T08:58:40Z</time>
      </trkpt>
      <trkpt lat="59.9072122" lon="17.6434932">
        <ele>26.0929</ele>
        <time>2012-04-09T08:58:51Z</time>
      </trkpt>
      <trkpt lat="59.9066173" lon="17.6433342">
        <ele>25.1317</ele>
        <time>2012-04-09T08:59:01Z</time>
      </trkpt>
      <trkpt lat="59.9061263" lon="17.6431431">
        <ele>23.6896</ele>
        <time>2012-04-09T08:59:09Z</time>
      </trkpt>
      <trkpt lat="59.9055469" lon="17.6429043">
        <ele>22.7283</ele>
        <time>2012-04-09T08:59:18Z</time>
      </trkpt>
      <trkpt lat="59.9054238" lon="17.6428992">
        <ele>22.7283</ele>
        <time>2012-04-09T08:59:20Z</time>
      </trkpt>
      <trkpt lat="59.9049482" lon="17.642695">
        <ele>21.767</ele>
        <time>2012-04-09T08:59:28Z</time>
      </trkpt>
      <trkpt lat="59.9046465" lon="17.6424785">
        <ele>21.767</ele>
        <time>2012-04-09T08:59:33Z</time>
      </trkpt>
      <trkpt lat="59.9042463" lon="17.6422508">
        <ele>22.2476</ele>
        <time>2012-04-09T08:59:40Z</time>
      </trkpt>
      <trkpt lat="59.9037402" lon="17.6419741">
        <ele>23.209</ele>
        <time>2012-04-09T08:59:50Z</time>
      </trkpt>
      <trkpt lat="59.9036947" lon="17.6419535">
        <ele>23.209</ele>
        <time>2012-04-09T08:59:51Z</time>
      </trkpt>
      <trkpt lat="59.9035237" lon="17.6419488">
        <ele>23.209</ele>
        <time>2012-04-09T08:59:55Z</time>
      </trkpt>
      <trkpt lat="59.903101" lon="17.6417011">
        <ele>22.7283</ele>
        <time>2012-04-09T09:00:04Z</time>
      </trkpt>
      <trkpt lat="59.9027647" lon="17.6415204">
        <ele>22.7283</ele>
        <time>2012-04-09T09:00:11Z</time>
      </trkpt>
      <trkpt lat="59.9022994" lon="17.6412188">
        <ele>22.7283</ele>
        <time>2012-04-09T09:00:21Z</time>
      </trkpt>
      <trkpt lat="59.9017505" lon="17.6407755">
        <ele>23.209</ele>
        <time>2012-04-09T09:00:33Z</time>
      </trkpt>
      <trkpt lat="59.9012434" lon="17.6402948">
        <ele>24.1703</ele>
        <time>2012-04-09T09:00:45Z</time>
      </trkpt>
      <trkpt lat="59.9008407" lon="17.6398879">
        <ele>24.1703</ele>
        <time>2012-04-09T09:00:55Z</time>
      </trkpt>
      <trkpt lat="59.9004542" lon="17.6394886">
        <ele>24.1703</ele>
        <time>2012-04-09T09:01:04Z</time>
      </trkpt>
      <trkpt lat="59.9000075" lon="17.6390317">
        <ele>25.1317</ele>
        <time>2012-04-09T09:01:14Z</time>
      </trkpt>
      <trkpt lat="59.8995745" lon="17.6385913">
        <ele>25.6123</ele>
        <time>2012-04-09T09:01:24Z</time>
      </trkpt>
      <trkpt lat="59.8991629" lon="17.6382059">
        <ele>26.0929</ele>
        <time>2012-04-09T09:01:34Z</time>
      </trkpt>
      <trkpt lat="59.8988284" lon="17.6378967">
        <ele>26.5736</ele>
        <time>2012-04-09T09:01:43Z</time>
      </trkpt>
      <trkpt lat="59.8984835" lon="17.6375851">
        <ele>27.0543</ele>
        <time>2012-04-09T09:01:52Z</time>
      </trkpt>
      <trkpt lat="59.8981181" lon="17.6372746">
        <ele>27.5349</ele>
        <time>2012-04-09T09:02:01Z</time>
      </trkpt>
      <trkpt lat="59.8978498" lon="17.6370658">
        <ele>28.0155</ele>
        <time>2012-04-09T09:02:07Z</time>
      </trkpt>
      <trkpt lat="59.8976799" lon="17.6369931">
        <ele>28.9769</ele>
        <time>2012-04-09T09:02:12Z</time>
      </trkpt>
      <trkpt lat="59.8974063" lon="17.6367451">
        <ele>28.9769</ele>
        <time>2012-04-09T09:02:21Z</time>
      </trkpt>
      <trkpt lat="59.8974197" lon="17.6364941">
        <ele>28.4962</ele>
        <time>2012-04-09T09:02:26Z</time>
      </trkpt>
      <trkpt lat="59.8974453" lon="17.6363794">
        <ele>28.4962</ele>
        <time>2012-04-09T09:02:28Z</time>
      </trkpt>
      <trkpt lat="59.8974833" lon="17.6361869">
        <ele>28.0155</ele>
        <time>2012-04-09T09:02:31Z</time>
      </trkpt>
      <trkpt lat="59.8980644" lon="17.6345801">
        <ele>28.9769</ele>
        <time>2012-04-09T09:03:51Z</time>
      </trkpt>
      <trkpt lat="59.8980782" lon="17.6345035">
        <ele>28.9769</ele>
        <time>2012-04-09T09:03:52Z</time>
      </trkpt>
      <trkpt lat="59.8981584" lon="17.6339207">
        <ele>28.0155</ele>
        <time>2012-04-09T09:03:58Z</time>
      </trkpt>
      <trkpt lat="59.8982233" lon="17.6332537">
        <ele>27.0543</ele>
        <time>2012-04-09T09:04:06Z</time>
      </trkpt>
      <trkpt lat="59.8982309" lon="17.6331778">
        <ele>27.0543</ele>
        <time>2012-04-09T09:04:07Z</time>
      </trkpt>
      <trkpt lat="59.8983543" lon="17.6326215">
        <ele>27.5349</ele>
        <time>2012-04-09T09:04:15Z</time>
      </trkpt>
      <trkpt lat="59.8983689" lon="17.6325537">
        <ele>27.5349</ele>
        <time>2012-04-09T09:04:16Z</time>
      </trkpt>
      <trkpt lat="59.8982859" lon="17.6322981">
        <ele>27.5349</ele>
        <time>2012-04-09T09:04:20Z</time>
      </trkpt>
      <trkpt lat="59.8980738" lon="17.6318688">
        <ele>27.5349</ele>
        <time>2012-04-09T09:04:26Z</time>
      </trkpt>
      <trkpt lat="59.898054" lon="17.6317679">
        <ele>27.5349</ele>
        <time>2012-04-09T09:04:27Z</time>
      </trkpt>
      <trkpt lat="59.8979352" lon="17.6310087">
        <ele>28.4962</ele>
        <time>2012-04-09T09:04:35Z</time>
      </trkpt>
      <trkpt lat="59.89772" lon="17.6301882">
        <ele>28.0155</ele>
        <time>2012-04-09T09:04:44Z</time>
      </trkpt>
      <trkpt lat="59.8976059" lon="17.629825">
        <ele>28.0155</ele>
        <time>2012-04-09T09:04:48Z</time>
      </trkpt>
      <trkpt lat="59.897392" lon="17.6293776">
        <ele>27.5349</ele>
        <time>2012-04-09T09:04:54Z</time>
      </trkpt>
      <trkpt lat="59.8971132" lon="17.6288275">
        <ele>27.5349</ele>
        <time>2012-04-09T09:05:02Z</time>
      </trkpt>
      <trkpt lat="59.897004" lon="17.6286342">
        <ele>27.5349</ele>
        <time>2012-04-09T09:05:05Z</time>
      </trkpt>
      <trkpt lat="59.8966512" lon="17.6282054">
        <ele>28.0155</ele>
        <time>2012-04-09T09:05:13Z</time>
      </trkpt>
      <trkpt lat="59.8965094" lon="17.6281003">
        <ele>28.4962</ele>
        <time>2012-04-09T09:05:16Z</time>
      </trkpt>
      <trkpt lat="59.8963288" lon="17.6279286">
        <ele>28.0155</ele>
        <time>2012-04-09T09:05:20Z</time>
      </trkpt>
      <trkpt lat="59.8959318" lon="17.627659">
        <ele>28.0155</ele>
        <time>2012-04-09T09:05:28Z</time>
      </trkpt>
      <trkpt lat="59.8955852" lon="17.6275432">
        <ele>29.4575</ele>
        <time>2012-04-09T09:05:36Z</time>
      </trkpt>
      <trkpt lat="59.8952371" lon="17.6273225">
        <ele>28.9769</ele>
        <time>2012-04-09T09:05:44Z</time>
      </trkpt>
      <trkpt lat="59.8949491" lon="17.6271578">
        <ele>28.9769</ele>
        <time>2012-04-09T09:05:50Z</time>
      </trkpt>
      <trkpt lat="59.8945125" lon="17.6268333">
        <ele>28.0155</ele>
        <time>2012-04-09T09:05:59Z</time>
      </trkpt>
      <trkpt lat="59.894417" lon="17.6267308">
        <ele>28.0155</ele>
        <time>2012-04-09T09:06:01Z</time>
      </trkpt>
      <trkpt lat="59.8941061" lon="17.6261935">
        <ele>26.0929</ele>
        <time>2012-04-09T09:06:08Z</time>
      </trkpt>
      <trkpt lat="59.8939807" lon="17.6259322">
        <ele>26.0929</ele>
        <time>2012-04-09T09:06:11Z</time>
      </trkpt>
      <trkpt lat="59.8938209" lon="17.6254413">
        <ele>25.1317</ele>
        <time>2012-04-09T09:06:16Z</time>
      </trkpt>
      <trkpt lat="59.8936881" lon="17.6246762">
        <ele>20.8057</ele>
        <time>2012-04-09T09:06:21Z</time>
      </trkpt>
      <trkpt lat="59.8936585" lon="17.6245012">
        <ele>20.325</ele>
        <time>2012-04-09T09:06:22Z</time>
      </trkpt>
      <trkpt lat="59.8934632" lon="17.62397">
        <ele>19.8444</ele>
        <time>2012-04-09T09:06:26Z</time>
      </trkpt>
      <trkpt lat="59.8931166" lon="17.62343">
        <ele>20.325</ele>
        <time>2012-04-09T09:06:33Z</time>
      </trkpt>
      <trkpt lat="59.8929935" lon="17.6232406">
        <ele>20.325</ele>
        <time>2012-04-09T09:06:36Z</time>
      </trkpt>
      <trkpt lat="59.8927403" lon="17.6230989">
        <ele>19.8444</ele>
        <time>2012-04-09T09:06:41Z</time>
      </trkpt>
      <trkpt lat="59.8924836" lon="17.6232256">
        <ele>20.325</ele>
        <time>2012-04-09T09:06:46Z</time>
      </trkpt>
      <trkpt lat="59.8923332" lon="17.6235592">
        <ele>18.4023</ele>
        <time>2012-04-09T09:06:50Z</time>
      </trkpt>
      <trkpt lat="59.8922327" lon="17.6238622">
        <ele>17.4412</ele>
        <time>2012-04-09T09:06:53Z</time>
      </trkpt>
      <trkpt lat="59.8920481" lon="17.6241024">
        <ele>17.9218</ele>
        <time>2012-04-09T09:06:57Z</time>
      </trkpt>
      <trkpt lat="59.8919483" lon="17.6241204">
        <ele>18.8831</ele>
        <time>2012-04-09T09:06:59Z</time>
      </trkpt>
      <trkpt lat="59.8915398" lon="17.6241261">
        <ele>20.325</ele>
        <time>2012-04-09T09:07:07Z</time>
      </trkpt>
      <trkpt lat="59.8910971" lon="17.624125">
        <ele>21.767</ele>
        <time>2012-04-09T09:07:15Z</time>
      </trkpt>
      <trkpt lat="59.8906846" lon="17.6241096">
        <ele>21.2864</ele>
        <time>2012-04-09T09:07:22Z</time>
      </trkpt>
      <trkpt lat="59.8902311" lon="17.6240777">
        <ele>19.8444</ele>
        <time>2012-04-09T09:07:29Z</time>
      </trkpt>
      <trkpt lat="59.889639" lon="17.6240577">
        <ele>20.325</ele>
        <time>2012-04-09T09:07:39Z</time>
      </trkpt>
      <trkpt lat="59.8894458" lon="17.6242205">
        <ele>20.325</ele>
        <time>2012-04-09T09:07:43Z</time>
      </trkpt>
      <trkpt lat="59.8893691" lon="17.6243569">
        <ele>21.2864</ele>
        <time>2012-04-09T09:07:45Z</time>
      </trkpt>
      <trkpt lat="59.8891125" lon="17.6246315">
        <ele>22.2476</ele>
        <time>2012-04-09T09:07:52Z</time>
      </trkpt>
      <trkpt lat="59.8887542" lon="17.6249263">
        <ele>22.2476</ele>
        <time>2012-04-09T09:08:00Z</time>
      </trkpt>
      <trkpt lat="59.8884422" lon="17.625047">
        <ele>23.6896</ele>
        <time>2012-04-09T09:08:07Z</time>
      </trkpt>
      <trkpt lat="59.8882082" lon="17.6250528">
        <ele>23.6896</ele>
        <time>2012-04-09T09:08:12Z</time>
      </trkpt>
      <trkpt lat="59.887815" lon="17.6252159">
        <ele>23.6896</ele>
        <time>2012-04-09T09:08:20Z</time>
      </trkpt>
      <trkpt lat="59.8874835" lon="17.6253175">
        <ele>23.209</ele>
        <time>2012-04-09T09:08:27Z</time>
      </trkpt>
      <trkpt lat="59.8874313" lon="17.6253231">
        <ele>22.7283</ele>
        <time>2012-04-09T09:08:29Z</time>
      </trkpt>
      <trkpt lat="59.8873097" lon="17.6253844">
        <ele>22.2476</ele>
        <time>2012-04-09T09:08:33Z</time>
      </trkpt>
      <trkpt lat="59.8869846" lon="17.6255328">
        <ele>22.2476</ele>
        <time>2012-04-09T09:08:40Z</time>
      </trkpt>
      <trkpt lat="59.8866598" lon="17.6255934">
        <ele>20.325</ele>
        <time>2012-04-09T09:08:45Z</time>
      </trkpt>
      <trkpt lat="59.8860678" lon="17.6256067">
        <ele>19.3638</ele>
        <time>2012-04-09T09:08:54Z</time>
      </trkpt>
      <trkpt lat="59.8860092" lon="17.625605">
        <ele>19.3638</ele>
        <time>2012-04-09T09:08:55Z</time>
      </trkpt>
      <trkpt lat="59.8858272" lon="17.6253662">
        <ele>18.4023</ele>
        <time>2012-04-09T09:08:59Z</time>
      </trkpt>
      <trkpt lat="59.8857032" lon="17.6253083">
        <ele>17.9218</ele>
        <time>2012-04-09T09:09:01Z</time>
      </trkpt>
      <trkpt lat="59.8856404" lon="17.6253259">
        <ele>17.4412</ele>
        <time>2012-04-09T09:09:02Z</time>
      </trkpt>
      <trkpt lat="59.8855176" lon="17.6253625">
        <ele>17.4412</ele>
        <time>2012-04-09T09:09:04Z</time>
      </trkpt>
      <trkpt lat="59.8854021" lon="17.6253446">
        <ele>17.4412</ele>
        <time>2012-04-09T09:09:06Z</time>
      </trkpt>
      <trkpt lat="59.885054" lon="17.6253729">
        <ele>18.8831</ele>
        <time>2012-04-09T09:09:13Z</time>
      </trkpt>
      <trkpt lat="59.8845254" lon="17.6254108">
        <ele>18.8831</ele>
        <time>2012-04-09T09:09:23Z</time>
      </trkpt>
      <trkpt lat="59.8841615" lon="17.6254394">
        <ele>18.8831</ele>
        <time>2012-04-09T09:09:30Z</time>
      </trkpt>
      <trkpt lat="59.884021" lon="17.6255159">
        <ele>18.8831</ele>
        <time>2012-04-09T09:09:33Z</time>
      </trkpt>
      <trkpt lat="59.8838329" lon="17.6255694">
        <ele>18.8831</ele>
        <time>2012-04-09T09:09:37Z</time>
      </trkpt>
      <trkpt lat="59.8835511" lon="17.6256351">
        <ele>18.8831</ele>
        <time>2012-04-09T09:09:43Z</time>
      </trkpt>
      <trkpt lat="59.8831295" lon="17.6258068">
        <ele>19.8444</ele>
        <time>2012-04-09T09:09:52Z</time>
      </trkpt>
      <trkpt lat="59.8829432" lon="17.6259246">
        <ele>20.325</ele>
        <time>2012-04-09T09:09:56Z</time>
      </trkpt>
      <trkpt lat="59.8827577" lon="17.6258721">
        <ele>19.8444</ele>
        <time>2012-04-09T09:10:00Z</time>
      </trkpt>
      <trkpt lat="59.8827157" lon="17.6258296">
        <ele>19.8444</ele>
        <time>2012-04-09T09:10:01Z</time>
      </trkpt>
      <trkpt lat="59.8824453" lon="17.625448">
        <ele>18.8831</ele>
        <time>2012-04-09T09:10:08Z</time>
      </trkpt>
      <trkpt lat="59.8823237" lon="17.6253287">
        <ele>18.8831</ele>
        <time>2012-04-09T09:10:11Z</time>
      </trkpt>
      <trkpt lat="59.8821671" lon="17.6249911">
        <ele>19.8444</ele>
        <time>2012-04-09T09:10:16Z</time>
      </trkpt>
      <trkpt lat="59.8820543" lon="17.624715">
        <ele>20.325</ele>
        <time>2012-04-09T09:10:20Z</time>
      </trkpt>
      <trkpt lat="59.8819592" lon="17.6245524">
        <ele>20.8057</ele>
        <time>2012-04-09T09:10:23Z</time>
      </trkpt>
      <trkpt lat="59.8816325" lon="17.6242494">
        <ele>20.325</ele>
        <time>2012-04-09T09:10:31Z</time>
      </trkpt>
      <trkpt lat="59.8815892" lon="17.6242168">
        <ele>20.325</ele>
        <time>2012-04-09T09:10:32Z</time>
      </trkpt>
      <trkpt lat="59.8815008" lon="17.623961">
        <ele>21.2864</ele>
        <time>2012-04-09T09:10:36Z</time>
      </trkpt>
      <trkpt lat="59.8815153" lon="17.6238853">
        <ele>21.2864</ele>
        <time>2012-04-09T09:10:37Z</time>
      </trkpt>
      <trkpt lat="59.8815879" lon="17.6235945">
        <ele>21.767</ele>
        <time>2012-04-09T09:10:41Z</time>
      </trkpt>
      <trkpt lat="59.8816239" lon="17.6231885">
        <ele>22.2476</ele>
        <time>2012-04-09T09:10:46Z</time>
      </trkpt>
      <trkpt lat="59.8816208" lon="17.6230085">
        <ele>22.2476</ele>
        <time>2012-04-09T09:10:48Z</time>
      </trkpt>
      <trkpt lat="59.8815704" lon="17.6226211">
        <ele>21.767</ele>
        <time>2012-04-09T09:10:52Z</time>
      </trkpt>
      <trkpt lat="59.8814179" lon="17.6220349">
        <ele>20.8057</ele>
        <time>2012-04-09T09:10:58Z</time>
      </trkpt>
      <trkpt lat="59.8812607" lon="17.6215427">
        <ele>19.8444</ele>
        <time>2012-04-09T09:11:03Z</time>
      </trkpt>
      <trkpt lat="59.8810232" lon="17.6212064">
        <ele>18.8831</ele>
        <time>2012-04-09T09:11:09Z</time>
      </trkpt>
      <trkpt lat="59.8807254" lon="17.6208275">
        <ele>18.4023</ele>
        <time>2012-04-09T09:11:16Z</time>
      </trkpt>
      <trkpt lat="59.8805888" lon="17.620534">
        <ele>18.4023</ele>
        <time>2012-04-09T09:11:20Z</time>
      </trkpt>
      <trkpt lat="59.8803085" lon="17.6193279">
        <ele>17.4412</ele>
        <time>2012-04-09T09:11:33Z</time>
      </trkpt>
      <trkpt lat="59.8801929" lon="17.6187373">
        <ele>18.4023</ele>
        <time>2012-04-09T09:11:39Z</time>
      </trkpt>
      <trkpt lat="59.8799872" lon="17.617778">
        <ele>17.9218</ele>
        <time>2012-04-09T09:11:48Z</time>
      </trkpt>
      <trkpt lat="59.8798115" lon="17.6169501">
        <ele>17.4412</ele>
        <time>2012-04-09T09:11:56Z</time>
      </trkpt>
      <trkpt lat="59.8796936" lon="17.6165347">
        <ele>17.4412</ele>
        <time>2012-04-09T09:12:00Z</time>
      </trkpt>
      <trkpt lat="59.8796261" lon="17.6162548">
        <ele>17.9218</ele>
        <time>2012-04-09T09:12:04Z</time>
      </trkpt>
      <trkpt lat="59.8796159" lon="17.6161936">
        <ele>17.9218</ele>
        <time>2012-04-09T09:12:05Z</time>
      </trkpt>
      <trkpt lat="59.879487" lon="17.6156001">
        <ele>17.4412</ele>
        <time>2012-04-09T09:12:12Z</time>
      </trkpt>
      <trkpt lat="59.8793269" lon="17.6149001">
        <ele>15.999</ele>
        <time>2012-04-09T09:12:19Z</time>
      </trkpt>
      <trkpt lat="59.8791301" lon="17.614069">
        <ele>15.5184</ele>
        <time>2012-04-09T09:12:27Z</time>
      </trkpt>
      <trkpt lat="59.8788736" lon="17.6130977">
        <ele>15.0377</ele>
        <time>2012-04-09T09:12:37Z</time>
      </trkpt>
      <trkpt lat="59.8785947" lon="17.6122082">
        <ele>15.0377</ele>
        <time>2012-04-09T09:12:46Z</time>
      </trkpt>
      <trkpt lat="59.8783868" lon="17.6115545">
        <ele>15.5184</ele>
        <time>2012-04-09T09:12:53Z</time>
      </trkpt>
      <trkpt lat="59.8781986" lon="17.6113073">
        <ele>15.5184</ele>
        <time>2012-04-09T09:12:57Z</time>
      </trkpt>
      <trkpt lat="59.8780112" lon="17.6109254">
        <ele>15.999</ele>
        <time>2012-04-09T09:13:02Z</time>
      </trkpt>
      <trkpt lat="59.8777147" lon="17.6099611">
        <ele>13.5958</ele>
        <time>2012-04-09T09:13:11Z</time>
      </trkpt>
      <trkpt lat="59.8773935" lon="17.6089012">
        <ele>12.6344</ele>
        <time>2012-04-09T09:13:20Z</time>
      </trkpt>
      <trkpt lat="59.8770822" lon="17.6078751">
        <ele>12.1538</ele>
        <time>2012-04-09T09:13:30Z</time>
      </trkpt>
      <trkpt lat="59.8766826" lon="17.6065811">
        <ele>11.1925</ele>
        <time>2012-04-09T09:13:42Z</time>
      </trkpt>
      <trkpt lat="59.8764582" lon="17.6059434">
        <ele>11.1925</ele>
        <time>2012-04-09T09:13:48Z</time>
      </trkpt>
      <trkpt lat="59.8762716" lon="17.6055395">
        <ele>10.7118</ele>
        <time>2012-04-09T09:13:53Z</time>
      </trkpt>
      <trkpt lat="59.8762405" lon="17.6054752">
        <ele>10.7118</ele>
        <time>2012-04-09T09:13:54Z</time>
      </trkpt>
      <trkpt lat="59.8761256" lon="17.605499">
        <ele>10.2312</ele>
        <time>2012-04-09T09:13:58Z</time>
      </trkpt>
      <trkpt lat="59.8760593" lon="17.6056467">
        <ele>9.75061</ele>
        <time>2012-04-09T09:14:00Z</time>
      </trkpt>
      <trkpt lat="59.8757474" lon="17.6061991">
        <ele>7.34717</ele>
        <time>2012-04-09T09:14:06Z</time>
      </trkpt>
      <trkpt lat="59.8754732" lon="17.6067035">
        <ele>6.38586</ele>
        <time>2012-04-09T09:14:11Z</time>
      </trkpt>
      <trkpt lat="59.8753403" lon="17.6071417">
        <ele>8.30859</ele>
        <time>2012-04-09T09:14:15Z</time>
      </trkpt>
      <trkpt lat="59.8751787" lon="17.6075279">
        <ele>8.78918</ele>
        <time>2012-04-09T09:14:20Z</time>
      </trkpt>
      <trkpt lat="59.8747539" lon="17.6079383">
        <ele>10.2312</ele>
        <time>2012-04-09T09:14:29Z</time>
      </trkpt>
      <trkpt lat="59.8743457" lon="17.6081761">
        <ele>10.2312</ele>
        <time>2012-04-09T09:14:37Z</time>
      </trkpt>
      <trkpt lat="59.8738789" lon="17.6083916">
        <ele>9.75061</ele>
        <time>2012-04-09T09:14:46Z</time>
      </trkpt>
      <trkpt lat="59.8737726" lon="17.6083953">
        <ele>9.75061</ele>
        <time>2012-04-09T09:14:48Z</time>
      </trkpt>
      <trkpt lat="59.8735107" lon="17.6082803">
        <ele>9.75061</ele>
        <time>2012-04-09T09:14:53Z</time>
      </trkpt>
      <trkpt lat="59.8733882" lon="17.6084635">
        <ele>9.75061</ele>
        <time>2012-04-09T09:14:56Z</time>
      </trkpt>
      <trkpt lat="59.8733613" lon="17.6085553">
        <ele>9.75061</ele>
        <time>2012-04-09T09:14:57Z</time>
      </trkpt>
      <trkpt lat="59.873245" lon="17.6089361">
        <ele>9.75061</ele>
        <time>2012-04-09T09:15:01Z</time>
      </trkpt>
      <trkpt lat="59.8730631" lon="17.6092285">
        <ele>9.2699</ele>
        <time>2012-04-09T09:15:05Z</time>
      </trkpt>
      <trkpt lat="59.872921" lon="17.6093846">
        <ele>9.2699</ele>
        <time>2012-04-09T09:15:08Z</time>
      </trkpt>
      <trkpt lat="59.872804" lon="17.6097172">
        <ele>10.2312</ele>
        <time>2012-04-09T09:15:12Z</time>
      </trkpt>
      <trkpt lat="59.8725569" lon="17.6102481">
        <ele>10.2312</ele>
        <time>2012-04-09T09:15:19Z</time>
      </trkpt>
      <trkpt lat="59.8722746" lon="17.6107612">
        <ele>9.75061</ele>
        <time>2012-04-09T09:15:26Z</time>
      </trkpt>
      <trkpt lat="59.8719795" lon="17.61121">
        <ele>9.2699</ele>
        <time>2012-04-09T09:15:33Z</time>
      </trkpt>
      <trkpt lat="59.8717013" lon="17.6117135">
        <ele>8.78918</ele>
        <time>2012-04-09T09:15:40Z</time>
      </trkpt>
      <trkpt lat="59.8714735" lon="17.6121911">
        <ele>7.82788</ele>
        <time>2012-04-09T09:15:46Z</time>
      </trkpt>
      <trkpt lat="59.8711499" lon="17.6129651">
        <ele>9.75061</ele>
        <time>2012-04-09T09:15:55Z</time>
      </trkpt>
      <trkpt lat="59.8710574" lon="17.6132436">
        <ele>10.2312</ele>
        <time>2012-04-09T09:15:58Z</time>
      </trkpt>
      <trkpt lat="59.870895" lon="17.6141418">
        <ele>10.2312</ele>
        <time>2012-04-09T09:16:06Z</time>
      </trkpt>
      <trkpt lat="59.8707241" lon="17.614821">
        <ele>9.75061</ele>
        <time>2012-04-09T09:16:12Z</time>
      </trkpt>
      <trkpt lat="59.8705" lon="17.6156362">
        <ele>7.82788</ele>
        <time>2012-04-09T09:16:19Z</time>
      </trkpt>
      <trkpt lat="59.8704024" lon="17.6160043">
        <ele>8.30859</ele>
        <time>2012-04-09T09:16:22Z</time>
      </trkpt>
      <trkpt lat="59.8702581" lon="17.6166244">
        <ele>9.75061</ele>
        <time>2012-04-09T09:16:27Z</time>
      </trkpt>
      <trkpt lat="59.8701224" lon="17.6173454">
        <ele>12.1538</ele>
        <time>2012-04-09T09:16:33Z</time>
      </trkpt>
      <trkpt lat="59.8700317" lon="17.6179849">
        <ele>12.1538</ele>
        <time>2012-04-09T09:16:39Z</time>
      </trkpt>
      <trkpt lat="59.8699747" lon="17.6184347">
        <ele>11.6732</ele>
        <time>2012-04-09T09:16:43Z</time>
      </trkpt>
      <trkpt lat="59.8698969" lon="17.618989">
        <ele>12.1538</ele>
        <time>2012-04-09T09:16:48Z</time>
      </trkpt>
      <trkpt lat="59.8699139" lon="17.6194547">
        <ele>12.1538</ele>
        <time>2012-04-09T09:16:52Z</time>
      </trkpt>
      <trkpt lat="59.8698287" lon="17.620557">
        <ele>11.6732</ele>
        <time>2012-04-09T09:17:01Z</time>
      </trkpt>
      <trkpt lat="59.8696909" lon="17.6214636">
        <ele>11.6732</ele>
        <time>2012-04-09T09:17:09Z</time>
      </trkpt>
      <trkpt lat="59.8696421" lon="17.6217629">
        <ele>11.1925</ele>
        <time>2012-04-09T09:17:12Z</time>
      </trkpt>
      <trkpt lat="59.8695521" lon="17.6220628">
        <ele>10.7118</ele>
        <time>2012-04-09T09:17:16Z</time>
      </trkpt>
      <trkpt lat="59.8694208" lon="17.6223002">
        <ele>10.7118</ele>
        <time>2012-04-09T09:17:20Z</time>
      </trkpt>
      <trkpt lat="59.8692925" lon="17.6227361">
        <ele>10.7118</ele>
        <time>2012-04-09T09:17:25Z</time>
      </trkpt>
      <trkpt lat="59.8691564" lon="17.6230813">
        <ele>11.1925</ele>
        <time>2012-04-09T09:17:30Z</time>
      </trkpt>
      <trkpt lat="59.8690979" lon="17.6232284">
        <ele>11.1925</ele>
        <time>2012-04-09T09:17:33Z</time>
      </trkpt>
      <trkpt lat="59.8690158" lon="17.6233076">
        <ele>11.1925</ele>
        <time>2012-04-09T09:17:35Z</time>
      </trkpt>
      <trkpt lat="59.8687667" lon="17.6234661">
        <ele>11.1925</ele>
        <time>2012-04-09T09:17:40Z</time>
      </trkpt>
      <trkpt lat="59.8686601" lon="17.623494">
        <ele>10.7118</ele>
        <time>2012-04-09T09:17:42Z</time>
      </trkpt>
      <trkpt lat="59.8682247" lon="17.6237034">
        <ele>12.6344</ele>
        <time>2012-04-09T09:17:50Z</time>
      </trkpt>
      <trkpt lat="59.8676697" lon="17.6240151">
        <ele>13.5958</ele>
        <time>2012-04-09T09:18:00Z</time>
      </trkpt>
      <trkpt lat="59.8673959" lon="17.6242635">
        <ele>14.0764</ele>
        <time>2012-04-09T09:18:05Z</time>
      </trkpt>
      <trkpt lat="59.8671224" lon="17.6248783">
        <ele>13.5958</ele>
        <time>2012-04-09T09:18:12Z</time>
      </trkpt>
      <trkpt lat="59.8670542" lon="17.6250689">
        <ele>13.5958</ele>
        <time>2012-04-09T09:18:14Z</time>
      </trkpt>
      <trkpt lat="59.8668813" lon="17.6253651">
        <ele>13.1151</ele>
        <time>2012-04-09T09:18:18Z</time>
      </trkpt>
      <trkpt lat="59.86669" lon="17.6256133">
        <ele>12.6344</ele>
        <time>2012-04-09T09:18:22Z</time>
      </trkpt>
      <trkpt lat="59.8665847" lon="17.6259553">
        <ele>13.1151</ele>
        <time>2012-04-09T09:18:26Z</time>
      </trkpt>
      <trkpt lat="59.8666232" lon="17.6263017">
        <ele>13.1151</ele>
        <time>2012-04-09T09:18:30Z</time>
      </trkpt>
      <trkpt lat="59.8666741" lon="17.6265409">
        <ele>13.1151</ele>
        <time>2012-04-09T09:18:33Z</time>
      </trkpt>
      <trkpt lat="59.8667631" lon="17.6266027">
        <ele>12.6344</ele>
        <time>2012-04-09T09:18:37Z</time>
      </trkpt>
      <trkpt lat="59.8667683" lon="17.6267263">
        <ele>11.6732</ele>
        <time>2012-04-09T09:18:40Z</time>
      </trkpt>
      <trkpt lat="59.8666857" lon="17.6268872">
        <ele>10.2312</ele>
        <time>2012-04-09T09:18:43Z</time>
      </trkpt>
      <trkpt lat="59.8665031" lon="17.6271115">
        <ele>8.30859</ele>
        <time>2012-04-09T09:18:47Z</time>
      </trkpt>
      <trkpt lat="59.8663998" lon="17.6272521">
        <ele>6.38586</ele>
        <time>2012-04-09T09:18:49Z</time>
      </trkpt>
      <trkpt lat="59.8661688" lon="17.6277282">
        <ele>6.86646</ele>
        <time>2012-04-09T09:18:55Z</time>
      </trkpt>
      <trkpt lat="59.8660952" lon="17.627858">
        <ele>6.86646</ele>
        <time>2012-04-09T09:18:57Z</time>
      </trkpt>
      <trkpt lat="59.8657898" lon="17.6283246">
        <ele>7.82788</ele>
        <time>2012-04-09T09:19:04Z</time>
      </trkpt>
      <trkpt lat="59.8656768" lon="17.6286546">
        <ele>7.34717</ele>
        <time>2012-04-09T09:19:08Z</time>
      </trkpt>
      <trkpt lat="59.8654974" lon="17.6289558">
        <ele>8.78918</ele>
        <time>2012-04-09T09:19:13Z</time>
      </trkpt>
      <trkpt lat="59.8652474" lon="17.6293678">
        <ele>9.75061</ele>
        <time>2012-04-09T09:19:19Z</time>
      </trkpt>
      <trkpt lat="59.8651825" lon="17.629558">
        <ele>9.2699</ele>
        <time>2012-04-09T09:19:21Z</time>
      </trkpt>
      <trkpt lat="59.8650521" lon="17.6300055">
        <ele>8.30859</ele>
        <time>2012-04-09T09:19:26Z</time>
      </trkpt>
      <trkpt lat="59.8649198" lon="17.6302421">
        <ele>5.90527</ele>
        <time>2012-04-09T09:19:29Z</time>
      </trkpt>
      <trkpt lat="59.864631" lon="17.6303256">
        <ele>6.86646</ele>
        <time>2012-04-09T09:19:34Z</time>
      </trkpt>
      <trkpt lat="59.8643735" lon="17.6306658">
        <ele>9.2699</ele>
        <time>2012-04-09T09:19:41Z</time>
      </trkpt>
      <trkpt lat="59.8641456" lon="17.63094">
        <ele>10.2312</ele>
        <time>2012-04-09T09:19:46Z</time>
      </trkpt>
      <trkpt lat="59.8637567" lon="17.6312124">
        <ele>7.82788</ele>
        <time>2012-04-09T09:19:54Z</time>
      </trkpt>
      <trkpt lat="59.8633726" lon="17.6314834">
        <ele>4.94385</ele>
        <time>2012-04-09T09:20:02Z</time>
      </trkpt>
      <trkpt lat="59.8630178" lon="17.6317191">
        <ele>4.46326</ele>
        <time>2012-04-09T09:20:09Z</time>
      </trkpt>
      <trkpt lat="59.8628702" lon="17.631823">
        <ele>3.02124</ele>
        <time>2012-04-09T09:20:12Z</time>
      </trkpt>
      <trkpt lat="59.8624698" lon="17.632104">
        <ele>1.09863</ele>
        <time>2012-04-09T09:20:20Z</time>
      </trkpt>
      <trkpt lat="59.8623104" lon="17.6322559">
        <ele>3.50195</ele>
        <time>2012-04-09T09:20:23Z</time>
      </trkpt>
      <trkpt lat="59.8619875" lon="17.6328414">
        <ele>8.30859</ele>
        <time>2012-04-09T09:20:31Z</time>
      </trkpt>
      <trkpt lat="59.8616571" lon="17.6333436">
        <ele>13.1151</ele>
        <time>2012-04-09T09:20:38Z</time>
      </trkpt>
      <trkpt lat="59.8613777" lon="17.633846">
        <ele>16.9604</ele>
        <time>2012-04-09T09:20:45Z</time>
      </trkpt>
      <trkpt lat="59.8610523" lon="17.6344836">
        <ele>23.209</ele>
        <time>2012-04-09T09:20:54Z</time>
      </trkpt>
      <trkpt lat="59.8609156" lon="17.6347314">
        <ele>25.1317</ele>
        <time>2012-04-09T09:20:58Z</time>
      </trkpt>
      <trkpt lat="59.8608586" lon="17.6348449">
        <ele>26.5736</ele>
        <time>2012-04-09T09:21:00Z</time>
      </trkpt>
      <trkpt lat="59.8607726" lon="17.6348951">
        <ele>26.5736</ele>
        <time>2012-04-09T09:21:05Z</time>
      </trkpt>
      <trkpt lat="59.8606976" lon="17.634873">
        <ele>23.6896</ele>
        <time>2012-04-09T09:21:09Z</time>
      </trkpt>
      <trkpt lat="59.8606299" lon="17.6349012">
        <ele>21.767</ele>
        <time>2012-04-09T09:21:13Z</time>
      </trkpt>
      <trkpt lat="59.8605352" lon="17.6345049">
        <ele>19.3638</ele>
        <time>2012-04-09T09:21:19Z</time>
      </trkpt>
      <trkpt lat="59.8603962" lon="17.6340827">
        <ele>19.8444</ele>
        <time>2012-04-09T09:21:25Z</time>
      </trkpt>
      <trkpt lat="59.860229" lon="17.6340257">
        <ele>13.5958</ele>
        <time>2012-04-09T09:21:29Z</time>
      </trkpt>
      <trkpt lat="59.8601376" lon="17.6341139">
        <ele>10.7118</ele>
        <time>2012-04-09T09:21:31Z</time>
      </trkpt>
      <trkpt lat="59.8596858" lon="17.6345577">
        <ele>7.82788</ele>
        <time>2012-04-09T09:21:39Z</time>
      </trkpt>
      <trkpt lat="59.8593447" lon="17.6350785">
        <ele>8.78918</ele>
        <time>2012-04-09T09:21:46Z</time>
      </trkpt>
      <trkpt lat="59.8589285" lon="17.6358326">
        <ele>10.2312</ele>
        <time>2012-04-09T09:21:55Z</time>
      </trkpt>
      <trkpt lat="59.8588877" lon="17.6359159">
        <ele>10.2312</ele>
        <time>2012-04-09T09:21:56Z</time>
      </trkpt>
      <trkpt lat="59.8587604" lon="17.636276">
        <ele>9.75061</ele>
        <time>2012-04-09T09:22:00Z</time>
      </trkpt>
      <trkpt lat="59.8586442" lon="17.6364926">
        <ele>9.75061</ele>
        <time>2012-04-09T09:22:03Z</time>
      </trkpt>
      <trkpt lat="59.8582335" lon="17.6373352">
        <ele>6.38586</ele>
        <time>2012-04-09T09:22:13Z</time>
      </trkpt>
      <trkpt lat="59.8579915" lon="17.6377835">
        <ele>6.86646</ele>
        <time>2012-04-09T09:22:19Z</time>
      </trkpt>
      <trkpt lat="59.8577449" lon="17.6382842">
        <ele>6.38586</ele>
        <time>2012-04-09T09:22:25Z</time>
      </trkpt>
      <trkpt lat="59.8573947" lon="17.6389972">
        <ele>5.90527</ele>
        <time>2012-04-09T09:22:33Z</time>
      </trkpt>
      <trkpt lat="59.8573147" lon="17.6391578">
        <ele>5.90527</ele>
        <time>2012-04-09T09:22:35Z</time>
      </trkpt>
      <trkpt lat="59.857172" lon="17.6393493">
        <ele>6.38586</ele>
        <time>2012-04-09T09:22:38Z</time>
      </trkpt>
      <trkpt lat="59.8569301" lon="17.6395829">
        <ele>6.38586</ele>
        <time>2012-04-09T09:22:43Z</time>
      </trkpt>
      <trkpt lat="59.8565833" lon="17.6399887">
        <ele>7.34717</ele>
        <time>2012-04-09T09:22:50Z</time>
      </trkpt>
      <trkpt lat="59.8564013" lon="17.6402124">
        <ele>6.86646</ele>
        <time>2012-04-09T09:22:54Z</time>
      </trkpt>
      <trkpt lat="59.8562641" lon="17.6404008">
        <ele>6.38586</ele>
        <time>2012-04-09T09:22:57Z</time>
      </trkpt>
      <trkpt lat="59.8559667" lon="17.6407563">
        <ele>5.42456</ele>
        <time>2012-04-09T09:23:03Z</time>
      </trkpt>
      <trkpt lat="59.8555729" lon="17.6412795">
        <ele>5.90527</ele>
        <time>2012-04-09T09:23:11Z</time>
      </trkpt>
      <trkpt lat="59.8553193" lon="17.6416099">
        <ele>8.78918</ele>
        <time>2012-04-09T09:23:16Z</time>
      </trkpt>
      <trkpt lat="59.8552118" lon="17.6417588">
        <ele>9.2699</ele>
        <time>2012-04-09T09:23:19Z</time>
      </trkpt>
      <trkpt lat="59.8551389" lon="17.6417823">
        <ele>7.82788</ele>
        <time>2012-04-09T09:23:24Z</time>
      </trkpt>
      <trkpt lat="59.8550778" lon="17.6418135">
        <ele>7.34717</ele>
        <time>2012-04-09T09:23:28Z</time>
      </trkpt>
      <trkpt lat="59.8550483" lon="17.6418177">
        <ele>7.34717</ele>
        <time>2012-04-09T09:23:29Z</time>
      </trkpt>
      <trkpt lat="59.8549488" lon="17.6416194">
        <ele>7.34717</ele>
        <time>2012-04-09T09:23:33Z</time>
      </trkpt>
      <trkpt lat="59.85482" lon="17.6412143">
        <ele>6.86646</ele>
        <time>2012-04-09T09:23:38Z</time>
      </trkpt>
      <trkpt lat="59.8546948" lon="17.6411281">
        <ele>6.38586</ele>
        <time>2012-04-09T09:23:41Z</time>
      </trkpt>
      <trkpt lat="59.8546049" lon="17.6412076">
        <ele>5.42456</ele>
        <time>2012-04-09T09:23:43Z</time>
      </trkpt>
      <trkpt lat="59.8543459" lon="17.6414762">
        <ele>4.94385</ele>
        <time>2012-04-09T09:23:48Z</time>
      </trkpt>
      <trkpt lat="59.8541419" lon="17.6416965">
        <ele>4.94385</ele>
        <time>2012-04-09T09:23:52Z</time>
      </trkpt>
      <trkpt lat="59.8538382" lon="17.6418589">
        <ele>5.90527</ele>
        <time>2012-04-09T09:23:58Z</time>
      </trkpt>
      <trkpt lat="59.8536016" lon="17.6420946">
        <ele>5.42456</ele>
        <time>2012-04-09T09:24:03Z</time>
      </trkpt>
      <trkpt lat="59.8533242" lon="17.6426739">
        <ele>5.90527</ele>
        <time>2012-04-09T09:24:10Z</time>
      </trkpt>
      <trkpt lat="59.8530147" lon="17.6432239">
        <ele>6.86646</ele>
        <time>2012-04-09T09:24:17Z</time>
      </trkpt>
      <trkpt lat="59.8526575" lon="17.6437452">
        <ele>7.82788</ele>
        <time>2012-04-09T09:24:25Z</time>
      </trkpt>
      <trkpt lat="59.8523872" lon="17.6441001">
        <ele>7.82788</ele>
        <time>2012-04-09T09:24:31Z</time>
      </trkpt>
      <trkpt lat="59.8520305" lon="17.6445304">
        <ele>7.82788</ele>
        <time>2012-04-09T09:24:39Z</time>
      </trkpt>
      <trkpt lat="59.8519111" lon="17.644671">
        <ele>6.86646</ele>
        <time>2012-04-09T09:24:42Z</time>
      </trkpt>
      <trkpt lat="59.8515792" lon="17.6450763">
        <ele>7.82788</ele>
        <time>2012-04-09T09:24:49Z</time>
      </trkpt>
      <trkpt lat="59.8514492" lon="17.645256">
        <ele>7.82788</ele>
        <time>2012-04-09T09:24:52Z</time>
      </trkpt>
      <trkpt lat="59.8511938" lon="17.6454793">
        <ele>6.38586</ele>
        <time>2012-04-09T09:24:58Z</time>
      </trkpt>
      <trkpt lat="59.8511154" lon="17.6455453">
        <ele>6.38586</ele>
        <time>2012-04-09T09:25:00Z</time>
      </trkpt>
      <trkpt lat="59.8508991" lon="17.6457484">
        <ele>6.38586</ele>
        <time>2012-04-09T09:25:05Z</time>
      </trkpt>
      <trkpt lat="59.8506355" lon="17.6459959">
        <ele>6.86646</ele>
        <time>2012-04-09T09:25:11Z</time>
      </trkpt>
      <trkpt lat="59.85051" lon="17.6461161">
        <ele>5.90527</ele>
        <time>2012-04-09T09:25:14Z</time>
      </trkpt>
      <trkpt lat="59.8503404" lon="17.64629">
        <ele>5.42456</ele>
        <time>2012-04-09T09:25:18Z</time>
      </trkpt>
      <trkpt lat="59.8501995" lon="17.6464202">
        <ele>5.90527</ele>
        <time>2012-04-09T09:25:21Z</time>
      </trkpt>
      <trkpt lat="59.8500106" lon="17.6466036">
        <ele>5.42456</ele>
        <time>2012-04-09T09:25:25Z</time>
      </trkpt>
      <trkpt lat="59.8499221" lon="17.6467041">
        <ele>5.42456</ele>
        <time>2012-04-09T09:25:27Z</time>
      </trkpt>
      <trkpt lat="59.8497817" lon="17.6468375">
        <ele>5.42456</ele>
        <time>2012-04-09T09:25:30Z</time>
      </trkpt>
      <trkpt lat="59.8494328" lon="17.6471795">
        <ele>8.78918</ele>
        <time>2012-04-09T09:25:37Z</time>
      </trkpt>
      <trkpt lat="59.8491553" lon="17.6475237">
        <ele>8.30859</ele>
        <time>2012-04-09T09:25:43Z</time>
      </trkpt>
      <trkpt lat="59.8488755" lon="17.6478784">
        <ele>8.30859</ele>
        <time>2012-04-09T09:25:49Z</time>
      </trkpt>
      <trkpt lat="59.8485451" lon="17.6482482">
        <ele>8.78918</ele>
        <time>2012-04-09T09:25:56Z</time>
      </trkpt>
      <trkpt lat="59.8482484" lon="17.6484757">
        <ele>8.78918</ele>
        <time>2012-04-09T09:26:02Z</time>
      </trkpt>
      <trkpt lat="59.8479002" lon="17.6487052">
        <ele>7.82788</ele>
        <time>2012-04-09T09:26:09Z</time>
      </trkpt>
      <trkpt lat="59.8476126" lon="17.6489438">
        <ele>6.86646</ele>
        <time>2012-04-09T09:26:15Z</time>
      </trkpt>
      <trkpt lat="59.8471617" lon="17.6493388">
        <ele>8.30859</ele>
        <time>2012-04-09T09:26:23Z</time>
      </trkpt>
      <trkpt lat="59.8467286" lon="17.6498054">
        <ele>7.82788</ele>
        <time>2012-04-09T09:26:32Z</time>
      </trkpt>
      <trkpt lat="59.8466367" lon="17.6499055">
        <ele>8.30859</ele>
        <time>2012-04-09T09:26:34Z</time>
      </trkpt>
      <trkpt lat="59.8463644" lon="17.6501839">
        <ele>7.34717</ele>
        <time>2012-04-09T09:26:40Z</time>
      </trkpt>
      <trkpt lat="59.8462722" lon="17.6502648">
        <ele>7.34717</ele>
        <time>2012-04-09T09:26:42Z</time>
      </trkpt>
      <trkpt lat="59.8458943" lon="17.6506622">
        <ele>7.82788</ele>
        <time>2012-04-09T09:26:50Z</time>
      </trkpt>
      <trkpt lat="59.845661" lon="17.6509045">
        <ele>7.34717</ele>
        <time>2012-04-09T09:26:55Z</time>
      </trkpt>
      <trkpt lat="59.8453139" lon="17.6512578">
        <ele>6.86646</ele>
        <time>2012-04-09T09:27:02Z</time>
      </trkpt>
      <trkpt lat="59.844941" lon="17.6517412">
        <ele>6.38586</ele>
        <time>2012-04-09T09:27:10Z</time>
      </trkpt>
      <trkpt lat="59.8444693" lon="17.6523639">
        <ele>6.86646</ele>
        <time>2012-04-09T09:27:20Z</time>
      </trkpt>
      <trkpt lat="59.8440969" lon="17.6528249">
        <ele>6.38586</ele>
        <time>2012-04-09T09:27:28Z</time>
      </trkpt>
      <trkpt lat="59.8436251" lon="17.6533895">
        <ele>6.38586</ele>
        <time>2012-04-09T09:27:38Z</time>
      </trkpt>
      <trkpt lat="59.8432326" lon="17.6538374">
        <ele>5.90527</ele>
        <time>2012-04-09T09:27:46Z</time>
      </trkpt>
      <trkpt lat="59.8428635" lon="17.6542758">
        <ele>5.42456</ele>
        <time>2012-04-09T09:27:54Z</time>
      </trkpt>
      <trkpt lat="59.8423866" lon="17.6548814">
        <ele>4.94385</ele>
        <time>2012-04-09T09:28:05Z</time>
      </trkpt>
      <trkpt lat="59.8419105" lon="17.6555217">
        <ele>4.46326</ele>
        <time>2012-04-09T09:28:16Z</time>
      </trkpt>
      <trkpt lat="59.841662" lon="17.655933">
        <ele>4.46326</ele>
        <time>2012-04-09T09:28:22Z</time>
      </trkpt>
      <trkpt lat="59.8414198" lon="17.6563531">
        <ele>4.46326</ele>
        <time>2012-04-09T09:28:28Z</time>
      </trkpt>
      <trkpt lat="59.84125" lon="17.6565735">
        <ele>3.50195</ele>
        <time>2012-04-09T09:28:32Z</time>
      </trkpt>
      <trkpt lat="59.8411215" lon="17.6566386">
        <ele>3.02124</ele>
        <time>2012-04-09T09:28:36Z</time>
      </trkpt>
      <trkpt lat="59.8411293" lon="17.6564457">
        <ele>2.06006</ele>
        <time>2012-04-09T09:28:39Z</time>
      </trkpt>
      <trkpt lat="59.8412442" lon="17.6561921">
        <ele>1.57935</ele>
        <time>2012-04-09T09:28:46Z</time>
      </trkpt>
      <trkpt lat="59.8413626" lon="17.6560382">
        <ele>2.06006</ele>
        <time>2012-04-09T09:28:50Z</time>
      </trkpt>
      <trkpt lat="59.8415624" lon="17.6557663">
        <ele>4.46326</ele>
        <time>2012-04-09T09:28:57Z</time>
      </trkpt>
      <trkpt lat="59.8416567" lon="17.6559283">
        <ele>5.42456</ele>
        <time>2012-04-09T09:29:01Z</time>
      </trkpt>
      <trkpt lat="59.8417677" lon="17.6563733">
        <ele>5.90527</ele>
        <time>2012-04-09T09:29:06Z</time>
      </trkpt>
      <trkpt lat="59.8419857" lon="17.6572973">
        <ele>6.86646</ele>
        <time>2012-04-09T09:29:15Z</time>
      </trkpt>
      <trkpt lat="59.8421943" lon="17.6582024">
        <ele>5.90527</ele>
        <time>2012-04-09T09:29:23Z</time>
      </trkpt>
      <trkpt lat="59.8423584" lon="17.6591435">
        <ele>4.94385</ele>
        <time>2012-04-09T09:29:30Z</time>
      </trkpt>
      <trkpt lat="59.8426223" lon="17.6602506">
        <ele>3.98267</ele>
        <time>2012-04-09T09:29:39Z</time>
      </trkpt>
      <trkpt lat="59.8428738" lon="17.6611856">
        <ele>3.98267</ele>
        <time>2012-04-09T09:29:47Z</time>
      </trkpt>
      <trkpt lat="59.8430937" lon="17.6619497">
        <ele>3.98267</ele>
        <time>2012-04-09T09:29:54Z</time>
      </trkpt>
      <trkpt lat="59.8433118" lon="17.6626795">
        <ele>3.98267</ele>
        <time>2012-04-09T09:30:01Z</time>
      </trkpt>
      <trkpt lat="59.8435718" lon="17.6634715">
        <ele>4.46326</ele>
        <time>2012-04-09T09:30:09Z</time>
      </trkpt>
      <trkpt lat="59.8437987" lon="17.6641888">
        <ele>4.46326</ele>
        <time>2012-04-09T09:30:16Z</time>
      </trkpt>
      <trkpt lat="59.8440597" lon="17.6650167">
        <ele>4.46326</ele>
        <time>2012-04-09T09:30:24Z</time>
      </trkpt>
      <trkpt lat="59.8444275" lon="17.6662231">
        <ele>4.94385</ele>
        <time>2012-04-09T09:30:36Z</time>
      </trkpt>
      <trkpt lat="59.8446814" lon="17.6669695">
        <ele>4.46326</ele>
        <time>2012-04-09T09:30:43Z</time>
      </trkpt>
      <trkpt lat="59.8449668" lon="17.6679483">
        <ele>4.46326</ele>
        <time>2012-04-09T09:30:51Z</time>
      </trkpt>
      <trkpt lat="59.8451155" lon="17.6687806">
        <ele>5.42456</ele>
        <time>2012-04-09T09:30:58Z</time>
      </trkpt>
      <trkpt lat="59.8451283" lon="17.6688955">
        <ele>5.90527</ele>
        <time>2012-04-09T09:30:59Z</time>
      </trkpt>
      <trkpt lat="59.8451802" lon="17.6694228">
        <ele>5.90527</ele>
        <time>2012-04-09T09:31:04Z</time>
      </trkpt>
      <trkpt lat="59.8452516" lon="17.6697799">
        <ele>4.94385</ele>
        <time>2012-04-09T09:31:07Z</time>
      </trkpt>
      <trkpt lat="59.8453693" lon="17.6708229">
        <ele>2.54065</ele>
        <time>2012-04-09T09:31:14Z</time>
      </trkpt>
      <trkpt lat="59.8454271" lon="17.6715763">
        <ele>2.06006</ele>
        <time>2012-04-09T09:31:19Z</time>
      </trkpt>
      <trkpt lat="59.8454402" lon="17.6723825">
        <ele>3.50195</ele>
        <time>2012-04-09T09:31:25Z</time>
      </trkpt>
      <trkpt lat="59.8454268" lon="17.672987">
        <ele>5.42456</ele>
        <time>2012-04-09T09:31:31Z</time>
      </trkpt>
      <trkpt lat="59.8454117" lon="17.6736054">
        <ele>6.86646</ele>
        <time>2012-04-09T09:31:38Z</time>
      </trkpt>
      <trkpt lat="59.8453808" lon="17.6743863">
        <ele>7.34717</ele>
        <time>2012-04-09T09:31:46Z</time>
      </trkpt>
      <trkpt lat="59.8452998" lon="17.6752761">
        <ele>7.82788</ele>
        <time>2012-04-09T09:31:55Z</time>
      </trkpt>
      <trkpt lat="59.8452636" lon="17.6756914">
        <ele>8.30859</ele>
        <time>2012-04-09T09:31:59Z</time>
      </trkpt>
      <trkpt lat="59.8452781" lon="17.6766837">
        <ele>8.30859</ele>
        <time>2012-04-09T09:32:08Z</time>
      </trkpt>
      <trkpt lat="59.845236" lon="17.6774992">
        <ele>8.78918</ele>
        <time>2012-04-09T09:32:15Z</time>
      </trkpt>
      <trkpt lat="59.8451013" lon="17.6784451">
        <ele>8.30859</ele>
        <time>2012-04-09T09:32:23Z</time>
      </trkpt>
      <trkpt lat="59.8449238" lon="17.6796226">
        <ele>8.78918</ele>
        <time>2012-04-09T09:32:33Z</time>
      </trkpt>
      <trkpt lat="59.8447549" lon="17.6807405">
        <ele>9.75061</ele>
        <time>2012-04-09T09:32:43Z</time>
      </trkpt>
      <trkpt lat="59.8446343" lon="17.6815295">
        <ele>10.2312</ele>
        <time>2012-04-09T09:32:51Z</time>
      </trkpt>
      <trkpt lat="59.8444789" lon="17.6825281">
        <ele>10.7118</ele>
        <time>2012-04-09T09:33:01Z</time>
      </trkpt>
      <trkpt lat="59.8443489" lon="17.683375">
        <ele>11.1925</ele>
        <time>2012-04-09T09:33:10Z</time>
      </trkpt>
      <trkpt lat="59.8441859" lon="17.6844081">
        <ele>11.6732</ele>
        <time>2012-04-09T09:33:20Z</time>
      </trkpt>
      <trkpt lat="59.8440051" lon="17.6855543">
        <ele>11.6732</ele>
        <time>2012-04-09T09:33:31Z</time>
      </trkpt>
      <trkpt lat="59.8438539" lon="17.6865309">
        <ele>12.1538</ele>
        <time>2012-04-09T09:33:40Z</time>
      </trkpt>
      <trkpt lat="59.8437116" lon="17.687443">
        <ele>11.6732</ele>
        <time>2012-04-09T09:33:48Z</time>
      </trkpt>
      <trkpt lat="59.8435791" lon="17.6883567">
        <ele>12.1538</ele>
        <time>2012-04-09T09:33:56Z</time>
      </trkpt>
      <trkpt lat="59.843481" lon="17.6892041">
        <ele>12.1538</ele>
        <time>2012-04-09T09:34:04Z</time>
      </trkpt>
      <trkpt lat="59.8434604" lon="17.689403">
        <ele>12.1538</ele>
        <time>2012-04-09T09:34:06Z</time>
      </trkpt>
      <trkpt lat="59.8434581" lon="17.6897377">
        <ele>12.6344</ele>
        <time>2012-04-09T09:34:10Z</time>
      </trkpt>
      <trkpt lat="59.8434779" lon="17.6898627">
        <ele>12.6344</ele>
        <time>2012-04-09T09:34:15Z</time>
      </trkpt>
      <trkpt lat="59.8434728" lon="17.6900885">
        <ele>12.1538</ele>
        <time>2012-04-09T09:34:20Z</time>
      </trkpt>
      <trkpt lat="59.8434574" lon="17.6902039">
        <ele>12.1538</ele>
        <time>2012-04-09T09:34:22Z</time>
      </trkpt>
      <trkpt lat="59.8434972" lon="17.6902589">
        <ele>11.6732</ele>
        <time>2012-04-09T09:34:26Z</time>
      </trkpt>
      <trkpt lat="59.8435537" lon="17.6902506">
        <ele>11.1925</ele>
        <time>2012-04-09T09:34:30Z</time>
      </trkpt>
      <trkpt lat="59.8437701" lon="17.6903375">
        <ele>11.1925</ele>
        <time>2012-04-09T09:34:35Z</time>
      </trkpt>
      <trkpt lat="59.8440997" lon="17.6904189">
        <ele>10.7118</ele>
        <time>2012-04-09T09:34:41Z</time>
      </trkpt>
      <trkpt lat="59.8446265" lon="17.6904614">
        <ele>10.7118</ele>
        <time>2012-04-09T09:34:50Z</time>
      </trkpt>
      <trkpt lat="59.8451019" lon="17.6905099">
        <ele>10.7118</ele>
        <time>2012-04-09T09:34:58Z</time>
      </trkpt>
      <trkpt lat="59.8453158" lon="17.690677">
        <ele>11.1925</ele>
        <time>2012-04-09T09:35:02Z</time>
      </trkpt>
      <trkpt lat="59.8455395" lon="17.69074">
        <ele>11.1925</ele>
        <time>2012-04-09T09:35:06Z</time>
      </trkpt>
      <trkpt lat="59.8455965" lon="17.6907047">
        <ele>11.1925</ele>
        <time>2012-04-09T09:35:07Z</time>
      </trkpt>
      <trkpt lat="59.8459541" lon="17.6906027">
        <ele>11.1925</ele>
        <time>2012-04-09T09:35:13Z</time>
      </trkpt>
      <trkpt lat="59.8461987" lon="17.6906271">
        <ele>11.6732</ele>
        <time>2012-04-09T09:35:17Z</time>
      </trkpt>
      <trkpt lat="59.8466249" lon="17.6906734">
        <ele>12.1538</ele>
        <time>2012-04-09T09:35:24Z</time>
      </trkpt>
      <trkpt lat="59.8470534" lon="17.6907292">
        <ele>12.1538</ele>
        <time>2012-04-09T09:35:31Z</time>
      </trkpt>
      <trkpt lat="59.8472206" lon="17.6908613">
        <ele>12.1538</ele>
        <time>2012-04-09T09:35:34Z</time>
      </trkpt>
      <trkpt lat="59.8474489" lon="17.6909192">
        <ele>12.1538</ele>
        <time>2012-04-09T09:35:38Z</time>
      </trkpt>
      <trkpt lat="59.8476822" lon="17.6907878">
        <ele>12.6344</ele>
        <time>2012-04-09T09:35:42Z</time>
      </trkpt>
      <trkpt lat="59.8478042" lon="17.6908183">
        <ele>12.6344</ele>
        <time>2012-04-09T09:35:44Z</time>
      </trkpt>
      <trkpt lat="59.8484426" lon="17.6910939">
        <ele>12.6344</ele>
        <time>2012-04-09T09:35:54Z</time>
      </trkpt>
      <trkpt lat="59.8487917" lon="17.6913291">
        <ele>13.5958</ele>
        <time>2012-04-09T09:36:00Z</time>
      </trkpt>
      <trkpt lat="59.8492257" lon="17.6917575">
        <ele>13.5958</ele>
        <time>2012-04-09T09:36:08Z</time>
      </trkpt>
      <trkpt lat="59.8493859" lon="17.692086">
        <ele>14.0764</ele>
        <time>2012-04-09T09:36:12Z</time>
      </trkpt>
      <trkpt lat="59.8496217" lon="17.6924173">
        <ele>14.0764</ele>
        <time>2012-04-09T09:36:17Z</time>
      </trkpt>
      <trkpt lat="59.8497326" lon="17.6925097">
        <ele>14.0764</ele>
        <time>2012-04-09T09:36:19Z</time>
      </trkpt>
      <trkpt lat="59.8499075" lon="17.6928862">
        <ele>13.1151</ele>
        <time>2012-04-09T09:36:23Z</time>
      </trkpt>
      <trkpt lat="59.8499382" lon="17.6930179">
        <ele>12.6344</ele>
        <time>2012-04-09T09:36:24Z</time>
      </trkpt>
      <trkpt lat="59.8500263" lon="17.6934487">
        <ele>11.6732</ele>
        <time>2012-04-09T09:36:27Z</time>
      </trkpt>
      <trkpt lat="59.8502375" lon="17.6941217">
        <ele>10.2312</ele>
        <time>2012-04-09T09:36:32Z</time>
      </trkpt>
      <trkpt lat="59.8502546" lon="17.6945241">
        <ele>14.0764</ele>
        <time>2012-04-09T09:36:35Z</time>
      </trkpt>
      <trkpt lat="59.8501625" lon="17.6947046">
        <ele>14.557</ele>
        <time>2012-04-09T09:36:37Z</time>
      </trkpt>
      <trkpt lat="59.8500122" lon="17.6951938">
        <ele>15.0377</ele>
        <time>2012-04-09T09:36:43Z</time>
      </trkpt>
      <trkpt lat="59.8500743" lon="17.6955654">
        <ele>15.0377</ele>
        <time>2012-04-09T09:36:47Z</time>
      </trkpt>
      <trkpt lat="59.8502074" lon="17.6957406">
        <ele>15.0377</ele>
        <time>2012-04-09T09:36:50Z</time>
      </trkpt>
      <trkpt lat="59.8503696" lon="17.6957544">
        <ele>15.0377</ele>
        <time>2012-04-09T09:36:53Z</time>
      </trkpt>
      <trkpt lat="59.8508218" lon="17.6955585">
        <ele>15.5184</ele>
        <time>2012-04-09T09:37:01Z</time>
      </trkpt>
      <trkpt lat="59.8510278" lon="17.6956229">
        <ele>15.999</ele>
        <time>2012-04-09T09:37:05Z</time>
      </trkpt>
      <trkpt lat="59.8512228" lon="17.695681">
        <ele>15.999</ele>
        <time>2012-04-09T09:37:10Z</time>
      </trkpt>
      <trkpt lat="59.8514947" lon="17.695328">
        <ele>15.5184</ele>
        <time>2012-04-09T09:37:17Z</time>
      </trkpt>
      <trkpt lat="59.8518629" lon="17.6948308">
        <ele>15.5184</ele>
        <time>2012-04-09T09:37:25Z</time>
      </trkpt>
      <trkpt lat="59.852097" lon="17.6945095">
        <ele>15.5184</ele>
        <time>2012-04-09T09:37:30Z</time>
      </trkpt>
      <trkpt lat="59.8522914" lon="17.6941165">
        <ele>16.4797</ele>
        <time>2012-04-09T09:37:35Z</time>
      </trkpt>
      <trkpt lat="59.8525567" lon="17.693773">
        <ele>16.9604</ele>
        <time>2012-04-09T09:37:41Z</time>
      </trkpt>
      <trkpt lat="59.8530716" lon="17.6932662">
        <ele>16.9604</ele>
        <time>2012-04-09T09:37:51Z</time>
      </trkpt>
      <trkpt lat="59.8535553" lon="17.6928435">
        <ele>19.3638</ele>
        <time>2012-04-09T09:38:00Z</time>
      </trkpt>
      <trkpt lat="59.8539403" lon="17.6925319">
        <ele>19.3638</ele>
        <time>2012-04-09T09:38:07Z</time>
      </trkpt>
      <trkpt lat="59.8542252" lon="17.6923615">
        <ele>19.3638</ele>
        <time>2012-04-09T09:38:12Z</time>
      </trkpt>
      <trkpt lat="59.8547711" lon="17.6919961">
        <ele>18.8831</ele>
        <time>2012-04-09T09:38:21Z</time>
      </trkpt>
      <trkpt lat="59.8552451" lon="17.6916475">
        <ele>18.4023</ele>
        <time>2012-04-09T09:38:29Z</time>
      </trkpt>
      <trkpt lat="59.8555316" lon="17.691418">
        <ele>18.4023</ele>
        <time>2012-04-09T09:38:35Z</time>
      </trkpt>
      <trkpt lat="59.8557217" lon="17.6912849">
        <ele>18.4023</ele>
        <time>2012-04-09T09:38:39Z</time>
      </trkpt>
      <trkpt lat="59.8558983" lon="17.6914047">
        <ele>18.4023</ele>
        <time>2012-04-09T09:38:43Z</time>
      </trkpt>
      <trkpt lat="59.8560025" lon="17.6916544">
        <ele>18.4023</ele>
        <time>2012-04-09T09:38:46Z</time>
      </trkpt>
      <trkpt lat="59.8560523" lon="17.6918788">
        <ele>17.9218</ele>
        <time>2012-04-09T09:38:48Z</time>
      </trkpt>
      <trkpt lat="59.8562699" lon="17.6932507">
        <ele>17.4412</ele>
        <time>2012-04-09T09:38:59Z</time>
      </trkpt>
      <trkpt lat="59.8564771" lon="17.6943309">
        <ele>17.4412</ele>
        <time>2012-04-09T09:39:08Z</time>
      </trkpt>
      <trkpt lat="59.8566649" lon="17.6953324">
        <ele>17.4412</ele>
        <time>2012-04-09T09:39:16Z</time>
      </trkpt>
      <trkpt lat="59.8567551" lon="17.6958159">
        <ele>17.4412</ele>
        <time>2012-04-09T09:39:20Z</time>
      </trkpt>
      <trkpt lat="59.856896" lon="17.6966432">
        <ele>17.4412</ele>
        <time>2012-04-09T09:39:27Z</time>
      </trkpt>
      <trkpt lat="59.8571018" lon="17.6977881">
        <ele>17.4412</ele>
        <time>2012-04-09T09:39:37Z</time>
      </trkpt>
      <trkpt lat="59.8571961" lon="17.6983065">
        <ele>17.4412</ele>
        <time>2012-04-09T09:39:42Z</time>
      </trkpt>
      <trkpt lat="59.8573736" lon="17.6991868">
        <ele>17.4412</ele>
        <time>2012-04-09T09:39:50Z</time>
      </trkpt>
      <trkpt lat="59.8575834" lon="17.7002081">
        <ele>16.9604</ele>
        <time>2012-04-09T09:39:59Z</time>
      </trkpt>
      <trkpt lat="59.8578179" lon="17.7012952">
        <ele>17.4412</ele>
        <time>2012-04-09T09:40:09Z</time>
      </trkpt>
      <trkpt lat="59.858036" lon="17.7021853">
        <ele>17.9218</ele>
        <time>2012-04-09T09:40:18Z</time>
      </trkpt>
      <trkpt lat="59.8582124" lon="17.702972">
        <ele>18.4023</ele>
        <time>2012-04-09T09:40:26Z</time>
      </trkpt>
      <trkpt lat="59.8583903" lon="17.7037511">
        <ele>18.8831</ele>
        <time>2012-04-09T09:40:34Z</time>
      </trkpt>
      <trkpt lat="59.8585795" lon="17.7045052">
        <ele>18.8831</ele>
        <time>2012-04-09T09:40:42Z</time>
      </trkpt>
      <trkpt lat="59.8587382" lon="17.7051262">
        <ele>18.8831</ele>
        <time>2012-04-09T09:40:49Z</time>
      </trkpt>
      <trkpt lat="59.8588272" lon="17.7052119">
        <ele>18.4023</ele>
        <time>2012-04-09T09:40:52Z</time>
      </trkpt>
      <trkpt lat="59.8588871" lon="17.7051095">
        <ele>17.9218</ele>
        <time>2012-04-09T09:40:54Z</time>
      </trkpt>
      <trkpt lat="59.8589681" lon="17.7049143">
        <ele>17.9218</ele>
        <time>2012-04-09T09:40:57Z</time>
      </trkpt>
      <trkpt lat="59.8591556" lon="17.7046368">
        <ele>17.9218</ele>
        <time>2012-04-09T09:41:02Z</time>
      </trkpt>
      <trkpt lat="59.859295" lon="17.7045118">
        <ele>17.9218</ele>
        <time>2012-04-09T09:41:05Z</time>
      </trkpt>
      <trkpt lat="59.8597347" lon="17.7042888">
        <ele>17.9218</ele>
        <time>2012-04-09T09:41:13Z</time>
      </trkpt>
      <trkpt lat="59.8601456" lon="17.7041336">
        <ele>17.9218</ele>
        <time>2012-04-09T09:41:20Z</time>
      </trkpt>
      <trkpt lat="59.8605335" lon="17.7039473">
        <ele>17.9218</ele>
        <time>2012-04-09T09:41:27Z</time>
      </trkpt>
      <trkpt lat="59.8609213" lon="17.7037815">
        <ele>18.4023</ele>
        <time>2012-04-09T09:41:34Z</time>
      </trkpt>
      <trkpt lat="59.8613274" lon="17.7038397">
        <ele>17.9218</ele>
        <time>2012-04-09T09:41:41Z</time>
      </trkpt>
      <trkpt lat="59.8618908" lon="17.7040494">
        <ele>16.9604</ele>
        <time>2012-04-09T09:41:51Z</time>
      </trkpt>
      <trkpt lat="59.8623446" lon="17.7042414">
        <ele>15.0377</ele>
        <time>2012-04-09T09:41:59Z</time>
      </trkpt>
      <trkpt lat="59.8628863" lon="17.7044559">
        <ele>15.0377</ele>
        <time>2012-04-09T09:42:08Z</time>
      </trkpt>
      <trkpt lat="59.8631857" lon="17.704383">
        <ele>15.0377</ele>
        <time>2012-04-09T09:42:13Z</time>
      </trkpt>
      <trkpt lat="59.8635758" lon="17.7039292">
        <ele>15.5184</ele>
        <time>2012-04-09T09:42:20Z</time>
      </trkpt>
      <trkpt lat="59.8640315" lon="17.7033423">
        <ele>16.4797</ele>
        <time>2012-04-09T09:42:29Z</time>
      </trkpt>
      <trkpt lat="59.8642373" lon="17.7031258">
        <ele>16.4797</ele>
        <time>2012-04-09T09:42:34Z</time>
      </trkpt>
      <trkpt lat="59.8642697" lon="17.7030941">
        <ele>15.999</ele>
        <time>2012-04-09T09:42:35Z</time>
      </trkpt>
      <trkpt lat="59.8643626" lon="17.7029708">
        <ele>15.999</ele>
        <time>2012-04-09T09:42:38Z</time>
      </trkpt>
      <trkpt lat="59.8644776" lon="17.7028523">
        <ele>16.4797</ele>
        <time>2012-04-09T09:42:41Z</time>
      </trkpt>
      <trkpt lat="59.8646677" lon="17.702562">
        <ele>17.4412</ele>
        <time>2012-04-09T09:42:46Z</time>
      </trkpt>
      <trkpt lat="59.8648857" lon="17.7022524">
        <ele>17.4412</ele>
        <time>2012-04-09T09:42:51Z</time>
      </trkpt>
      <trkpt lat="59.8652402" lon="17.7016846">
        <ele>19.8444</ele>
        <time>2012-04-09T09:42:59Z</time>
      </trkpt>
      <trkpt lat="59.8653506" lon="17.7014769">
        <ele>20.325</ele>
        <time>2012-04-09T09:43:02Z</time>
      </trkpt>
      <trkpt lat="59.8655442" lon="17.7008273">
        <ele>22.2476</ele>
        <time>2012-04-09T09:43:10Z</time>
      </trkpt>
      <trkpt lat="59.865725" lon="17.7002528">
        <ele>23.209</ele>
        <time>2012-04-09T09:43:18Z</time>
      </trkpt>
      <trkpt lat="59.865967" lon="17.6996741">
        <ele>23.6896</ele>
        <time>2012-04-09T09:43:26Z</time>
      </trkpt>
      <trkpt lat="59.8661622" lon="17.6992872">
        <ele>24.1703</ele>
        <time>2012-04-09T09:43:31Z</time>
      </trkpt>
      <trkpt lat="59.8664625" lon="17.6989265">
        <ele>23.6896</ele>
        <time>2012-04-09T09:43:37Z</time>
      </trkpt>
      <trkpt lat="59.8667872" lon="17.6984942">
        <ele>22.2476</ele>
        <time>2012-04-09T09:43:43Z</time>
      </trkpt>
      <trkpt lat="59.8672307" lon="17.6978217">
        <ele>21.767</ele>
        <time>2012-04-09T09:43:51Z</time>
      </trkpt>
      <trkpt lat="59.8672903" lon="17.6977572">
        <ele>21.767</ele>
        <time>2012-04-09T09:43:52Z</time>
      </trkpt>
      <trkpt lat="59.8677115" lon="17.6975246">
        <ele>22.2476</ele>
        <time>2012-04-09T09:43:59Z</time>
      </trkpt>
      <trkpt lat="59.8677675" lon="17.6974814">
        <ele>22.2476</ele>
        <time>2012-04-09T09:44:00Z</time>
      </trkpt>
      <trkpt lat="59.8681896" lon="17.6969562">
        <ele>21.767</ele>
        <time>2012-04-09T09:44:08Z</time>
      </trkpt>
      <trkpt lat="59.8685864" lon="17.6966033">
        <ele>22.2476</ele>
        <time>2012-04-09T09:44:15Z</time>
      </trkpt>
      <trkpt lat="59.8689725" lon="17.696193">
        <ele>21.767</ele>
        <time>2012-04-09T09:44:22Z</time>
      </trkpt>
      <trkpt lat="59.8693698" lon="17.6956208">
        <ele>20.325</ele>
        <time>2012-04-09T09:44:29Z</time>
      </trkpt>
      <trkpt lat="59.8699101" lon="17.6949861">
        <ele>20.325</ele>
        <time>2012-04-09T09:44:38Z</time>
      </trkpt>
      <trkpt lat="59.8704407" lon="17.6944313">
        <ele>20.8057</ele>
        <time>2012-04-09T09:44:47Z</time>
      </trkpt>
      <trkpt lat="59.8708818" lon="17.6939316">
        <ele>20.8057</ele>
        <time>2012-04-09T09:44:55Z</time>
      </trkpt>
      <trkpt lat="59.8712294" lon="17.6933724">
        <ele>20.8057</ele>
        <time>2012-04-09T09:45:02Z</time>
      </trkpt>
      <trkpt lat="59.871552" lon="17.6926738">
        <ele>20.8057</ele>
        <time>2012-04-09T09:45:09Z</time>
      </trkpt>
      <trkpt lat="59.8718556" lon="17.6920388">
        <ele>21.2864</ele>
        <time>2012-04-09T09:45:16Z</time>
      </trkpt>
      <trkpt lat="59.8721597" lon="17.6913838">
        <ele>21.2864</ele>
        <time>2012-04-09T09:45:24Z</time>
      </trkpt>
      <trkpt lat="59.8724384" lon="17.6907427">
        <ele>21.2864</ele>
        <time>2012-04-09T09:45:32Z</time>
      </trkpt>
      <trkpt lat="59.8726631" lon="17.6899987">
        <ele>21.767</ele>
        <time>2012-04-09T09:45:40Z</time>
      </trkpt>
      <trkpt lat="59.8728868" lon="17.6894152">
        <ele>22.2476</ele>
        <time>2012-04-09T09:45:47Z</time>
      </trkpt>
      <trkpt lat="59.8731285" lon="17.6889129">
        <ele>21.767</ele>
        <time>2012-04-09T09:45:53Z</time>
      </trkpt>
      <trkpt lat="59.8735737" lon="17.6883728">
        <ele>22.7283</ele>
        <time>2012-04-09T09:46:02Z</time>
      </trkpt>
      <trkpt lat="59.873852" lon="17.6880888">
        <ele>23.6896</ele>
        <time>2012-04-09T09:46:08Z</time>
      </trkpt>
      <trkpt lat="59.8738926" lon="17.6880483">
        <ele>24.1703</ele>
        <time>2012-04-09T09:46:09Z</time>
      </trkpt>
      <trkpt lat="59.874022" lon="17.6881729">
        <ele>24.651</ele>
        <time>2012-04-09T09:46:13Z</time>
      </trkpt>
      <trkpt lat="59.8741949" lon="17.6889136">
        <ele>24.1703</ele>
        <time>2012-04-09T09:46:21Z</time>
      </trkpt>
      <trkpt lat="59.8744762" lon="17.6900017">
        <ele>23.6896</ele>
        <time>2012-04-09T09:46:31Z</time>
      </trkpt>
      <trkpt lat="59.8747964" lon="17.6909659">
        <ele>24.1703</ele>
        <time>2012-04-09T09:46:40Z</time>
      </trkpt>
      <trkpt lat="59.8752116" lon="17.6919762">
        <ele>24.651</ele>
        <time>2012-04-09T09:46:50Z</time>
      </trkpt>
      <trkpt lat="59.8756269" lon="17.6929368">
        <ele>23.209</ele>
        <time>2012-04-09T09:46:59Z</time>
      </trkpt>
      <trkpt lat="59.8759307" lon="17.6936912">
        <ele>20.8057</ele>
        <time>2012-04-09T09:47:05Z</time>
      </trkpt>
      <trkpt lat="59.8762821" lon="17.6946217">
        <ele>17.9218</ele>
        <time>2012-04-09T09:47:11Z</time>
      </trkpt>
      <trkpt lat="59.8766161" lon="17.6956699">
        <ele>15.999</ele>
        <time>2012-04-09T09:47:17Z</time>
      </trkpt>
      <trkpt lat="59.8767506" lon="17.6961238">
        <ele>16.4797</ele>
        <time>2012-04-09T09:47:20Z</time>
      </trkpt>
      <trkpt lat="59.8769311" lon="17.6967545">
        <ele>19.3638</ele>
        <time>2012-04-09T09:47:25Z</time>
      </trkpt>
      <trkpt lat="59.8770491" lon="17.6971852">
        <ele>20.8057</ele>
        <time>2012-04-09T09:47:30Z</time>
      </trkpt>
      <trkpt lat="59.8771585" lon="17.6976264">
        <ele>22.2476</ele>
        <time>2012-04-09T09:47:36Z</time>
      </trkpt>
      <trkpt lat="59.8773185" lon="17.6982896">
        <ele>23.209</ele>
        <time>2012-04-09T09:47:44Z</time>
      </trkpt>
      <trkpt lat="59.8775237" lon="17.6990708">
        <ele>22.7283</ele>
        <time>2012-04-09T09:47:53Z</time>
      </trkpt>
      <trkpt lat="59.8777884" lon="17.6999477">
        <ele>22.7283</ele>
        <time>2012-04-09T09:48:02Z</time>
      </trkpt>
      <trkpt lat="59.8780614" lon="17.7007533">
        <ele>22.7283</ele>
        <time>2012-04-09T09:48:10Z</time>
      </trkpt>
      <trkpt lat="59.8784685" lon="17.7017904">
        <ele>21.767</ele>
        <time>2012-04-09T09:48:20Z</time>
      </trkpt>
      <trkpt lat="59.8788213" lon="17.7028127">
        <ele>21.767</ele>
        <time>2012-04-09T09:48:29Z</time>
      </trkpt>
      <trkpt lat="59.879359" lon="17.704283">
        <ele>21.2864</ele>
        <time>2012-04-09T09:48:42Z</time>
      </trkpt>
      <trkpt lat="59.8798098" lon="17.7056749">
        <ele>20.8057</ele>
        <time>2012-04-09T09:48:54Z</time>
      </trkpt>
      <trkpt lat="59.8801688" lon="17.7070191">
        <ele>20.8057</ele>
        <time>2012-04-09T09:49:05Z</time>
      </trkpt>
      <trkpt lat="59.8803593" lon="17.7081103">
        <ele>20.8057</ele>
        <time>2012-04-09T09:49:14Z</time>
      </trkpt>
      <trkpt lat="59.8805402" lon="17.7088653">
        <ele>20.8057</ele>
        <time>2012-04-09T09:49:21Z</time>
      </trkpt>
      <trkpt lat="59.8807494" lon="17.7094711">
        <ele>21.2864</ele>
        <time>2012-04-09T09:49:28Z</time>
      </trkpt>
      <trkpt lat="59.8809339" lon="17.709866">
        <ele>20.8057</ele>
        <time>2012-04-09T09:49:33Z</time>
      </trkpt>
      <trkpt lat="59.8811621" lon="17.7105714">
        <ele>20.325</ele>
        <time>2012-04-09T09:49:40Z</time>
      </trkpt>
      <trkpt lat="59.8814813" lon="17.7114608">
        <ele>19.3638</ele>
        <time>2012-04-09T09:49:48Z</time>
      </trkpt>
      <trkpt lat="59.8816477" lon="17.7122088">
        <ele>19.3638</ele>
        <time>2012-04-09T09:49:54Z</time>
      </trkpt>
      <trkpt lat="59.8818036" lon="17.7133636">
        <ele>19.3638</ele>
        <time>2012-04-09T09:50:03Z</time>
      </trkpt>
      <trkpt lat="59.881975" lon="17.7145722">
        <ele>19.3638</ele>
        <time>2012-04-09T09:50:13Z</time>
      </trkpt>
      <trkpt lat="59.8821547" lon="17.7158878">
        <ele>19.3638</ele>
        <time>2012-04-09T09:50:24Z</time>
      </trkpt>
      <trkpt lat="59.8822978" lon="17.7170551">
        <ele>19.3638</ele>
        <time>2012-04-09T09:50:34Z</time>
      </trkpt>
      <trkpt lat="59.8823434" lon="17.7178967">
        <ele>20.325</ele>
        <time>2012-04-09T09:50:41Z</time>
      </trkpt>
      <trkpt lat="59.8824044" lon="17.7184789">
        <ele>20.325</ele>
        <time>2012-04-09T09:50:46Z</time>
      </trkpt>
      <trkpt lat="59.8826639" lon="17.7197321">
        <ele>20.325</ele>
        <time>2012-04-09T09:50:57Z</time>
      </trkpt>
      <trkpt lat="59.8828332" lon="17.7205035">
        <ele>20.8057</ele>
        <time>2012-04-09T09:51:04Z</time>
      </trkpt>
      <trkpt lat="59.8828235" lon="17.7209489">
        <ele>20.8057</ele>
        <time>2012-04-09T09:51:08Z</time>
      </trkpt>
      <trkpt lat="59.882694" lon="17.7211704">
        <ele>20.8057</ele>
        <time>2012-04-09T09:51:11Z</time>
      </trkpt>
      <trkpt lat="59.8826431" lon="17.7212222">
        <ele>20.8057</ele>
        <time>2012-04-09T09:51:12Z</time>
      </trkpt>
      <trkpt lat="59.8821063" lon="17.7218017">
        <ele>21.2864</ele>
        <time>2012-04-09T09:51:23Z</time>
      </trkpt>
      <trkpt lat="59.8818123" lon="17.7223644">
        <ele>21.2864</ele>
        <time>2012-04-09T09:51:30Z</time>
      </trkpt>
      <trkpt lat="59.8814913" lon="17.7230742">
        <ele>21.767</ele>
        <time>2012-04-09T09:51:38Z</time>
      </trkpt>
      <trkpt lat="59.8814166" lon="17.7235022">
        <ele>21.767</ele>
        <time>2012-04-09T09:51:42Z</time>
      </trkpt>
      <trkpt lat="59.8814559" lon="17.7238466">
        <ele>21.767</ele>
        <time>2012-04-09T09:51:45Z</time>
      </trkpt>
      <trkpt lat="59.881641" lon="17.7245808">
        <ele>21.767</ele>
        <time>2012-04-09T09:51:52Z</time>
      </trkpt>
      <trkpt lat="59.8818521" lon="17.7253705">
        <ele>22.2476</ele>
        <time>2012-04-09T09:52:00Z</time>
      </trkpt>
      <trkpt lat="59.8821535" lon="17.7263061">
        <ele>22.7283</ele>
        <time>2012-04-09T09:52:09Z</time>
      </trkpt>
      <trkpt lat="59.8824168" lon="17.7271256">
        <ele>23.209</ele>
        <time>2012-04-09T09:52:17Z</time>
      </trkpt>
      <trkpt lat="59.8826192" lon="17.7280147">
        <ele>23.209</ele>
        <time>2012-04-09T09:52:25Z</time>
      </trkpt>
      <trkpt lat="59.8827896" lon="17.7289633">
        <ele>21.2864</ele>
        <time>2012-04-09T09:52:33Z</time>
      </trkpt>
      <trkpt lat="59.8828683" lon="17.7297041">
        <ele>21.2864</ele>
        <time>2012-04-09T09:52:39Z</time>
      </trkpt>
      <trkpt lat="59.8828331" lon="17.7301322">
        <ele>19.8444</ele>
        <time>2012-04-09T09:52:44Z</time>
      </trkpt>
      <trkpt lat="59.8827466" lon="17.730382">
        <ele>19.8444</ele>
        <time>2012-04-09T09:52:48Z</time>
      </trkpt>
      <trkpt lat="59.8827163" lon="17.7307437">
        <ele>19.8444</ele>
        <time>2012-04-09T09:52:53Z</time>
      </trkpt>
      <trkpt lat="59.8827681" lon="17.7310941">
        <ele>19.8444</ele>
        <time>2012-04-09T09:52:57Z</time>
      </trkpt>
      <trkpt lat="59.8828422" lon="17.7314192">
        <ele>19.3638</ele>
        <time>2012-04-09T09:53:00Z</time>
      </trkpt>
      <trkpt lat="59.8831295" lon="17.7320965">
        <ele>17.9218</ele>
        <time>2012-04-09T09:53:06Z</time>
      </trkpt>
      <trkpt lat="59.8833772" lon="17.7328216">
        <ele>17.4412</ele>
        <time>2012-04-09T09:53:12Z</time>
      </trkpt>
      <trkpt lat="59.8835325" lon="17.7337762">
        <ele>17.4412</ele>
        <time>2012-04-09T09:53:19Z</time>
      </trkpt>
      <trkpt lat="59.8835627" lon="17.7340463">
        <ele>17.4412</ele>
        <time>2012-04-09T09:53:21Z</time>
      </trkpt>
      <trkpt lat="59.8835124" lon="17.7346946">
        <ele>17.9218</ele>
        <time>2012-04-09T09:53:26Z</time>
      </trkpt>
      <trkpt lat="59.8834806" lon="17.7348025">
        <ele>17.9218</ele>
        <time>2012-04-09T09:53:27Z</time>
      </trkpt>
      <trkpt lat="59.8834094" lon="17.7349968">
        <ele>17.9218</ele>
        <time>2012-04-09T09:53:29Z</time>
      </trkpt>
      <trkpt lat="59.883331" lon="17.735432">
        <ele>18.4023</ele>
        <time>2012-04-09T09:53:33Z</time>
      </trkpt>
      <trkpt lat="59.8833342" lon="17.7355509">
        <ele>18.8831</ele>
        <time>2012-04-09T09:53:34Z</time>
      </trkpt>
      <trkpt lat="59.8834067" lon="17.7361093">
        <ele>19.8444</ele>
        <time>2012-04-09T09:53:39Z</time>
      </trkpt>
      <trkpt lat="59.8836215" lon="17.7369067">
        <ele>22.2476</ele>
        <time>2012-04-09T09:53:48Z</time>
      </trkpt>
      <trkpt lat="59.8838067" lon="17.7375505">
        <ele>22.7283</ele>
        <time>2012-04-09T09:53:55Z</time>
      </trkpt>
      <trkpt lat="59.8838843" lon="17.7382252">
        <ele>23.209</ele>
        <time>2012-04-09T09:54:01Z</time>
      </trkpt>
      <trkpt lat="59.8839779" lon="17.7392626">
        <ele>23.6896</ele>
        <time>2012-04-09T09:54:10Z</time>
      </trkpt>
      <trkpt lat="59.8840128" lon="17.7395908">
        <ele>23.6896</ele>
        <time>2012-04-09T09:54:13Z</time>
      </trkpt>
      <trkpt lat="59.8841516" lon="17.7398708">
        <ele>23.6896</ele>
        <time>2012-04-09T09:54:17Z</time>
      </trkpt>
      <trkpt lat="59.8843177" lon="17.739836">
        <ele>23.209</ele>
        <time>2012-04-09T09:54:20Z</time>
      </trkpt>
      <trkpt lat="59.88492" lon="17.7394657">
        <ele>20.325</ele>
        <time>2012-04-09T09:54:30Z</time>
      </trkpt>
      <trkpt lat="59.8851945" lon="17.7395403">
        <ele>18.8831</ele>
        <time>2012-04-09T09:54:34Z</time>
      </trkpt>
      <trkpt lat="59.8853083" lon="17.7398915">
        <ele>19.3638</ele>
        <time>2012-04-09T09:54:37Z</time>
      </trkpt>
      <trkpt lat="59.8853302" lon="17.7400192">
        <ele>19.3638</ele>
        <time>2012-04-09T09:54:38Z</time>
      </trkpt>
      <trkpt lat="59.8854056" lon="17.7405108">
        <ele>19.3638</ele>
        <time>2012-04-09T09:54:42Z</time>
      </trkpt>
      <trkpt lat="59.8854576" lon="17.7407486">
        <ele>19.8444</ele>
        <time>2012-04-09T09:54:44Z</time>
      </trkpt>
      <trkpt lat="59.8856956" lon="17.7412348">
        <ele>19.8444</ele>
        <time>2012-04-09T09:54:49Z</time>
      </trkpt>
      <trkpt lat="59.8857606" lon="17.7413023">
        <ele>19.3638</ele>
        <time>2012-04-09T09:54:50Z</time>
      </trkpt>
      <trkpt lat="59.8862582" lon="17.7418115">
        <ele>17.4412</ele>
        <time>2012-04-09T09:54:57Z</time>
      </trkpt>
      <trkpt lat="59.8868521" lon="17.7425702">
        <ele>16.9604</ele>
        <time>2012-04-09T09:55:06Z</time>
      </trkpt>
      <trkpt lat="59.8873462" lon="17.743368">
        <ele>16.9604</ele>
        <time>2012-04-09T09:55:15Z</time>
      </trkpt>
      <trkpt lat="59.8878347" lon="17.7441862">
        <ele>17.4412</ele>
        <time>2012-04-09T09:55:25Z</time>
      </trkpt>
      <trkpt lat="59.8883251" lon="17.7450199">
        <ele>18.4023</ele>
        <time>2012-04-09T09:55:36Z</time>
      </trkpt>
      <trkpt lat="59.888765" lon="17.7457745">
        <ele>18.8831</ele>
        <time>2012-04-09T09:55:46Z</time>
      </trkpt>
      <trkpt lat="59.8892872" lon="17.746664">
        <ele>19.8444</ele>
        <time>2012-04-09T09:55:58Z</time>
      </trkpt>
      <trkpt lat="59.8897508" lon="17.7474556">
        <ele>21.2864</ele>
        <time>2012-04-09T09:56:09Z</time>
      </trkpt>
      <trkpt lat="59.8900925" lon="17.7480437">
        <ele>22.2476</ele>
        <time>2012-04-09T09:56:18Z</time>
      </trkpt>
      <trkpt lat="59.8903766" lon="17.7484848">
        <ele>22.2476</ele>
        <time>2012-04-09T09:56:27Z</time>
      </trkpt>
      <trkpt lat="59.8904107" lon="17.7485237">
        <ele>22.2476</ele>
        <time>2012-04-09T09:56:28Z</time>
      </trkpt>
      <trkpt lat="59.8905791" lon="17.7485208">
        <ele>23.209</ele>
        <time>2012-04-09T09:56:32Z</time>
      </trkpt>
      <trkpt lat="59.8906712" lon="17.7484345">
        <ele>23.209</ele>
        <time>2012-04-09T09:56:34Z</time>
      </trkpt>
      <trkpt lat="59.8910949" lon="17.7478989">
        <ele>24.1703</ele>
        <time>2012-04-09T09:56:43Z</time>
      </trkpt>
      <trkpt lat="59.8915616" lon="17.7472752">
        <ele>27.0543</ele>
        <time>2012-04-09T09:56:53Z</time>
      </trkpt>
      <trkpt lat="59.8919336" lon="17.7467318">
        <ele>27.0543</ele>
        <time>2012-04-09T09:57:01Z</time>
      </trkpt>
      <trkpt lat="59.8921476" lon="17.7463949">
        <ele>27.0543</ele>
        <time>2012-04-09T09:57:06Z</time>
      </trkpt>
      <trkpt lat="59.8924111" lon="17.7457123">
        <ele>27.5349</ele>
        <time>2012-04-09T09:57:14Z</time>
      </trkpt>
      <trkpt lat="59.8926642" lon="17.7449058">
        <ele>28.4962</ele>
        <time>2012-04-09T09:57:23Z</time>
      </trkpt>
      <trkpt lat="59.8927756" lon="17.7445407">
        <ele>28.9769</ele>
        <time>2012-04-09T09:57:28Z</time>
      </trkpt>
      <trkpt lat="59.8929167" lon="17.7440987">
        <ele>30.4188</ele>
        <time>2012-04-09T09:57:36Z</time>
      </trkpt>
      <trkpt lat="59.8930304" lon="17.7437515">
        <ele>30.4188</ele>
        <time>2012-04-09T09:57:43Z</time>
      </trkpt>
      <trkpt lat="59.8931116" lon="17.7434746">
        <ele>29.4575</ele>
        <time>2012-04-09T09:57:48Z</time>
      </trkpt>
      <trkpt lat="59.8932358" lon="17.7430456">
        <ele>27.5349</ele>
        <time>2012-04-09T09:57:54Z</time>
      </trkpt>
      <trkpt lat="59.8934256" lon="17.7424774">
        <ele>26.0929</ele>
        <time>2012-04-09T09:58:00Z</time>
      </trkpt>
      <trkpt lat="59.8936958" lon="17.7416605">
        <ele>25.1317</ele>
        <time>2012-04-09T09:58:07Z</time>
      </trkpt>
      <trkpt lat="59.8939421" lon="17.7408999">
        <ele>24.651</ele>
        <time>2012-04-09T09:58:14Z</time>
      </trkpt>
      <trkpt lat="59.894127" lon="17.7402784">
        <ele>24.1703</ele>
        <time>2012-04-09T09:58:20Z</time>
      </trkpt>
      <trkpt lat="59.8942305" lon="17.7399847">
        <ele>24.651</ele>
        <time>2012-04-09T09:58:24Z</time>
      </trkpt>
      <trkpt lat="59.8943452" lon="17.7397551">
        <ele>24.1703</ele>
        <time>2012-04-09T09:58:28Z</time>
      </trkpt>
      <trkpt lat="59.8944097" lon="17.7396589">
        <ele>24.1703</ele>
        <time>2012-04-09T09:58:30Z</time>
      </trkpt>
      <trkpt lat="59.8945451" lon="17.7395045">
        <ele>23.209</ele>
        <time>2012-04-09T09:58:34Z</time>
      </trkpt>
      <trkpt lat="59.8947007" lon="17.7398676">
        <ele>29.4575</ele>
        <time>2012-04-09T10:07:08Z</time>
      </trkpt>
      <trkpt lat="59.8947003" lon="17.7398728">
        <ele>29.4575</ele>
        <time>2012-04-09T10:07:09Z</time>
      </trkpt>
      <trkpt lat="59.8946989" lon="17.7398752">
        <ele>28.9769</ele>
        <time>2012-04-09T10:07:10Z</time>
      </trkpt>
    </trkseg>
  </trk>
</gpx>